<?xml version="1.0" encoding="UTF-8" standalone="no" ?>
<gpx xmlns="http://www.topografix.com/GPX/1/1" xmlns:xsi="http://www.w3.org/2001/XMLSchema-instance" xsi:schemaLocation="http://www.topografix.com/GPX/1/1 http://www.topografix.com/GPX/1/1/gpx.xsd" version="1.1" creator="VisuGPX - https://www.visugpx.com">
  <metadata>
    <name>LYONS ( Forêt) Reco HW</name>
    <desc><![CDATA[Trace brute de la reco en forêt de Lyons réalisée le lundi 9 octobre 2017 par JB et HW.]]></desc>
  </metadata>
  <trk>
    <name><![CDATA[ACTIVE LOG- 09 OCT 2017 01-51-F-MNT]]></name>
    <trkseg>
      <trkpt lat="49.39926" lon="1.479">
        <ele>104.368752</ele>
        <time>2017-10-09T07:51:56Z</time>
      </trkpt>
      <trkpt lat="49.39925" lon="1.479">
        <ele>104.513748</ele>
        <time>2017-10-09T07:52:24Z</time>
      </trkpt>
      <trkpt lat="49.39924" lon="1.47902">
        <ele>104.573746</ele>
        <time>2017-10-09T07:52:28Z</time>
      </trkpt>
      <trkpt lat="49.39907" lon="1.47903">
        <ele>106.842499</ele>
        <time>2017-10-09T07:52:44Z</time>
      </trkpt>
      <trkpt lat="49.39879" lon="1.47886">
        <ele>110.18692</ele>
        <time>2017-10-09T07:53:05Z</time>
      </trkpt>
      <trkpt lat="49.39848" lon="1.47887">
        <ele>114.248398</ele>
        <time>2017-10-09T07:53:29Z</time>
      </trkpt>
      <trkpt lat="49.39842" lon="1.47889">
        <ele>115.166122</ele>
        <time>2017-10-09T07:53:47Z</time>
      </trkpt>
      <trkpt lat="49.39826" lon="1.47886">
        <ele>117.233871</ele>
        <time>2017-10-09T07:54:14Z</time>
      </trkpt>
      <trkpt lat="49.39788" lon="1.47887">
        <ele>122.447502</ele>
        <time>2017-10-09T07:54:44Z</time>
      </trkpt>
      <trkpt lat="49.39753" lon="1.47885">
        <ele>127.019493</ele>
        <time>2017-10-09T07:55:10Z</time>
      </trkpt>
      <trkpt lat="49.3973" lon="1.47883">
        <ele>130.246902</ele>
        <time>2017-10-09T07:55:29Z</time>
      </trkpt>
      <trkpt lat="49.39718" lon="1.47876">
        <ele>131.775223</ele>
        <time>2017-10-09T07:55:41Z</time>
      </trkpt>
      <trkpt lat="49.39699" lon="1.47862">
        <ele>133.935806</ele>
        <time>2017-10-09T07:55:59Z</time>
      </trkpt>
      <trkpt lat="49.39693" lon="1.47858">
        <ele>134.662506</ele>
        <time>2017-10-09T07:56:04Z</time>
      </trkpt>
      <trkpt lat="49.39677" lon="1.47837">
        <ele>136.584106</ele>
        <time>2017-10-09T07:56:21Z</time>
      </trkpt>
      <trkpt lat="49.39679" lon="1.47833">
        <ele>136.281052</ele>
        <time>2017-10-09T07:56:44Z</time>
      </trkpt>
      <trkpt lat="49.39656" lon="1.47808">
        <ele>138.074005</ele>
        <time>2017-10-09T07:57:03Z</time>
      </trkpt>
      <trkpt lat="49.39624" lon="1.47766">
        <ele>141.580185</ele>
        <time>2017-10-09T07:57:23Z</time>
      </trkpt>
      <trkpt lat="49.39592" lon="1.47726">
        <ele>144.004852</ele>
        <time>2017-10-09T07:57:41Z</time>
      </trkpt>
      <trkpt lat="49.39561" lon="1.47692">
        <ele>147.694992</ele>
        <time>2017-10-09T07:57:57Z</time>
      </trkpt>
      <trkpt lat="49.39528" lon="1.47651">
        <ele>151.002594</ele>
        <time>2017-10-09T07:58:15Z</time>
      </trkpt>
      <trkpt lat="49.39488" lon="1.47595">
        <ele>153.319778</ele>
        <time>2017-10-09T07:58:39Z</time>
      </trkpt>
      <trkpt lat="49.39455" lon="1.47549">
        <ele>155.128296</ele>
        <time>2017-10-09T07:59:00Z</time>
      </trkpt>
      <trkpt lat="49.3941" lon="1.47499">
        <ele>156.737503</ele>
        <time>2017-10-09T07:59:23Z</time>
      </trkpt>
      <trkpt lat="49.39359" lon="1.47457">
        <ele>158.374741</ele>
        <time>2017-10-09T07:59:44Z</time>
      </trkpt>
      <trkpt lat="49.3931" lon="1.47424">
        <ele>159.029999</ele>
        <time>2017-10-09T08:00:02Z</time>
      </trkpt>
      <trkpt lat="49.39257" lon="1.47387">
        <ele>160.210007</ele>
        <time>2017-10-09T08:00:19Z</time>
      </trkpt>
      <trkpt lat="49.39202" lon="1.47377">
        <ele>161.429993</ele>
        <time>2017-10-09T08:00:37Z</time>
      </trkpt>
      <trkpt lat="49.39192" lon="1.47437">
        <ele>161.664993</ele>
        <time>2017-10-09T08:00:47Z</time>
      </trkpt>
      <trkpt lat="49.39185" lon="1.47477">
        <ele>161.830002</ele>
        <time>2017-10-09T08:00:53Z</time>
      </trkpt>
      <trkpt lat="49.39157" lon="1.47549">
        <ele>161.598373</ele>
        <time>2017-10-09T08:01:08Z</time>
      </trkpt>
      <trkpt lat="49.39103" lon="1.47539">
        <ele>163.056519</ele>
        <time>2017-10-09T08:01:22Z</time>
      </trkpt>
      <trkpt lat="49.39013" lon="1.47503">
        <ele>166.333603</ele>
        <time>2017-10-09T08:01:50Z</time>
      </trkpt>
      <trkpt lat="49.38947" lon="1.47501">
        <ele>168.130005</ele>
        <time>2017-10-09T08:02:09Z</time>
      </trkpt>
      <trkpt lat="49.38887" lon="1.4755">
        <ele>169.960007</ele>
        <time>2017-10-09T08:02:29Z</time>
      </trkpt>
      <trkpt lat="49.38829" lon="1.47597">
        <ele>171.399994</ele>
        <time>2017-10-09T08:02:48Z</time>
      </trkpt>
      <trkpt lat="49.38754" lon="1.47652">
        <ele>171.846252</ele>
        <time>2017-10-09T08:03:12Z</time>
      </trkpt>
      <trkpt lat="49.38697" lon="1.47685">
        <ele>172.098755</ele>
        <time>2017-10-09T08:03:24Z</time>
      </trkpt>
      <trkpt lat="49.38566" lon="1.47757">
        <ele>170.713745</ele>
        <time>2017-10-09T08:03:49Z</time>
      </trkpt>
      <trkpt lat="49.38473" lon="1.47789">
        <ele>169.073746</ele>
        <time>2017-10-09T08:04:05Z</time>
      </trkpt>
      <trkpt lat="49.38427" lon="1.47798">
        <ele>169.190002</ele>
        <time>2017-10-09T08:04:15Z</time>
      </trkpt>
      <trkpt lat="49.38375" lon="1.47814">
        <ele>169.413757</ele>
        <time>2017-10-09T08:04:28Z</time>
      </trkpt>
      <trkpt lat="49.38332" lon="1.4781">
        <ele>170.213745</ele>
        <time>2017-10-09T08:04:41Z</time>
      </trkpt>
      <trkpt lat="49.38293" lon="1.47807">
        <ele>171.744995</ele>
        <time>2017-10-09T08:04:54Z</time>
      </trkpt>
      <trkpt lat="49.38251" lon="1.47805">
        <ele>172.910004</ele>
        <time>2017-10-09T08:05:09Z</time>
      </trkpt>
      <trkpt lat="49.38214" lon="1.47807">
        <ele>174.253754</ele>
        <time>2017-10-09T08:05:20Z</time>
      </trkpt>
      <trkpt lat="49.38164" lon="1.47808">
        <ele>175.703339</ele>
        <time>2017-10-09T08:05:35Z</time>
      </trkpt>
      <trkpt lat="49.38124" lon="1.47799">
        <ele>176</ele>
        <time>2017-10-09T08:05:50Z</time>
      </trkpt>
      <trkpt lat="49.38084" lon="1.47799">
        <ele>176</ele>
        <time>2017-10-09T08:06:04Z</time>
      </trkpt>
      <trkpt lat="49.38044" lon="1.47798">
        <ele>176</ele>
        <time>2017-10-09T08:06:18Z</time>
      </trkpt>
      <trkpt lat="49.37989" lon="1.478">
        <ele>176</ele>
        <time>2017-10-09T08:06:33Z</time>
      </trkpt>
      <trkpt lat="49.37968" lon="1.47832">
        <ele>176</ele>
        <time>2017-10-09T08:06:47Z</time>
      </trkpt>
      <trkpt lat="49.37968" lon="1.47847">
        <ele>176</ele>
        <time>2017-10-09T08:06:50Z</time>
      </trkpt>
      <trkpt lat="49.37972" lon="1.47905">
        <ele>176</ele>
        <time>2017-10-09T08:07:03Z</time>
      </trkpt>
      <trkpt lat="49.37975" lon="1.47956">
        <ele>176</ele>
        <time>2017-10-09T08:07:15Z</time>
      </trkpt>
      <trkpt lat="49.37981" lon="1.48002">
        <ele>176</ele>
        <time>2017-10-09T08:07:27Z</time>
      </trkpt>
      <trkpt lat="49.37994" lon="1.48055">
        <ele>176</ele>
        <time>2017-10-09T08:07:39Z</time>
      </trkpt>
      <trkpt lat="49.38009" lon="1.48093">
        <ele>176</ele>
        <time>2017-10-09T08:07:50Z</time>
      </trkpt>
      <trkpt lat="49.38029" lon="1.48161">
        <ele>176</ele>
        <time>2017-10-09T08:08:05Z</time>
      </trkpt>
      <trkpt lat="49.38037" lon="1.48224">
        <ele>176</ele>
        <time>2017-10-09T08:08:19Z</time>
      </trkpt>
      <trkpt lat="49.38044" lon="1.48282">
        <ele>176</ele>
        <time>2017-10-09T08:08:31Z</time>
      </trkpt>
      <trkpt lat="49.38059" lon="1.4836">
        <ele>176</ele>
        <time>2017-10-09T08:08:47Z</time>
      </trkpt>
      <trkpt lat="49.38069" lon="1.48414">
        <ele>176</ele>
        <time>2017-10-09T08:08:58Z</time>
      </trkpt>
      <trkpt lat="49.38082" lon="1.48471">
        <ele>176</ele>
        <time>2017-10-09T08:09:10Z</time>
      </trkpt>
      <trkpt lat="49.38093" lon="1.48531">
        <ele>176.235214</ele>
        <time>2017-10-09T08:09:22Z</time>
      </trkpt>
      <trkpt lat="49.38098" lon="1.48595">
        <ele>176.195007</ele>
        <time>2017-10-09T08:09:33Z</time>
      </trkpt>
      <trkpt lat="49.38109" lon="1.48662">
        <ele>176.642929</ele>
        <time>2017-10-09T08:09:47Z</time>
      </trkpt>
      <trkpt lat="49.38116" lon="1.48694">
        <ele>176.676254</ele>
        <time>2017-10-09T08:09:54Z</time>
      </trkpt>
      <trkpt lat="49.38125" lon="1.48757">
        <ele>175.619995</ele>
        <time>2017-10-09T08:10:10Z</time>
      </trkpt>
      <trkpt lat="49.38134" lon="1.4881">
        <ele>175.434998</ele>
        <time>2017-10-09T08:10:21Z</time>
      </trkpt>
      <trkpt lat="49.38148" lon="1.48871">
        <ele>174.511215</ele>
        <time>2017-10-09T08:10:33Z</time>
      </trkpt>
      <trkpt lat="49.38129" lon="1.48918">
        <ele>174.748749</ele>
        <time>2017-10-09T08:10:45Z</time>
      </trkpt>
      <trkpt lat="49.38094" lon="1.48975">
        <ele>175.123749</ele>
        <time>2017-10-09T08:11:00Z</time>
      </trkpt>
      <trkpt lat="49.38088" lon="1.48984">
        <ele>175.138748</ele>
        <time>2017-10-09T08:11:02Z</time>
      </trkpt>
      <trkpt lat="49.38054" lon="1.49051">
        <ele>174.372498</ele>
        <time>2017-10-09T08:11:17Z</time>
      </trkpt>
      <trkpt lat="49.38041" lon="1.49086">
        <ele>173.365005</ele>
        <time>2017-10-09T08:11:22Z</time>
      </trkpt>
      <trkpt lat="49.38007" lon="1.49221">
        <ele>169.970917</ele>
        <time>2017-10-09T08:11:40Z</time>
      </trkpt>
      <trkpt lat="49.37963" lon="1.49391">
        <ele>165.442505</ele>
        <time>2017-10-09T08:11:59Z</time>
      </trkpt>
      <trkpt lat="49.37948" lon="1.49454">
        <ele>164.330002</ele>
        <time>2017-10-09T08:12:06Z</time>
      </trkpt>
      <trkpt lat="49.37923" lon="1.49472">
        <ele>163.764999</ele>
        <time>2017-10-09T08:12:12Z</time>
      </trkpt>
      <trkpt lat="49.37906" lon="1.49468">
        <ele>163.399994</ele>
        <time>2017-10-09T08:12:15Z</time>
      </trkpt>
      <trkpt lat="49.37823" lon="1.49469">
        <ele>159.604996</ele>
        <time>2017-10-09T08:12:29Z</time>
      </trkpt>
      <trkpt lat="49.37742" lon="1.495">
        <ele>154.175003</ele>
        <time>2017-10-09T08:12:40Z</time>
      </trkpt>
      <trkpt lat="49.3769" lon="1.49522">
        <ele>150.584</ele>
        <time>2017-10-09T08:12:49Z</time>
      </trkpt>
      <trkpt lat="49.37671" lon="1.49522">
        <ele>148.909698</ele>
        <time>2017-10-09T08:12:53Z</time>
      </trkpt>
      <trkpt lat="49.3765" lon="1.49516">
        <ele>146.457993</ele>
        <time>2017-10-09T08:12:57Z</time>
      </trkpt>
      <trkpt lat="49.37633" lon="1.49516">
        <ele>144.647507</ele>
        <time>2017-10-09T08:13:00Z</time>
      </trkpt>
      <trkpt lat="49.37572" lon="1.49535">
        <ele>138.225647</ele>
        <time>2017-10-09T08:13:13Z</time>
      </trkpt>
      <trkpt lat="49.37532" lon="1.49566">
        <ele>133.986008</ele>
        <time>2017-10-09T08:13:25Z</time>
      </trkpt>
      <trkpt lat="49.37527" lon="1.4957">
        <ele>133.391449</ele>
        <time>2017-10-09T08:13:26Z</time>
      </trkpt>
      <trkpt lat="49.37486" lon="1.49604">
        <ele>126.678696</ele>
        <time>2017-10-09T08:13:36Z</time>
      </trkpt>
      <trkpt lat="49.37457" lon="1.49631">
        <ele>125.738998</ele>
        <time>2017-10-09T08:13:45Z</time>
      </trkpt>
      <trkpt lat="49.37438" lon="1.49648">
        <ele>121.179802</ele>
        <time>2017-10-09T08:13:50Z</time>
      </trkpt>
      <trkpt lat="49.37413" lon="1.49694">
        <ele>121.343872</ele>
        <time>2017-10-09T08:14:01Z</time>
      </trkpt>
      <trkpt lat="49.37389" lon="1.49731">
        <ele>119.803261</ele>
        <time>2017-10-09T08:14:08Z</time>
      </trkpt>
      <trkpt lat="49.37341" lon="1.49774">
        <ele>109.899353</ele>
        <time>2017-10-09T08:14:20Z</time>
      </trkpt>
      <trkpt lat="49.37313" lon="1.49785">
        <ele>101.853912</ele>
        <time>2017-10-09T08:14:29Z</time>
      </trkpt>
      <trkpt lat="49.37294" lon="1.498">
        <ele>98.755379</ele>
        <time>2017-10-09T08:14:36Z</time>
      </trkpt>
      <trkpt lat="49.37281" lon="1.49806">
        <ele>96.536079</ele>
        <time>2017-10-09T08:14:44Z</time>
      </trkpt>
      <trkpt lat="49.37292" lon="1.49767">
        <ele>96.729553</ele>
        <time>2017-10-09T08:14:59Z</time>
      </trkpt>
      <trkpt lat="49.37294" lon="1.49747">
        <ele>95.767776</ele>
        <time>2017-10-09T08:15:14Z</time>
      </trkpt>
      <trkpt lat="49.37295" lon="1.49696">
        <ele>95.25</ele>
        <time>2017-10-09T08:15:36Z</time>
      </trkpt>
      <trkpt lat="49.37298" lon="1.49681">
        <ele>95.517502</ele>
        <time>2017-10-09T08:15:41Z</time>
      </trkpt>
      <trkpt lat="49.37303" lon="1.49671">
        <ele>95.779999</ele>
        <time>2017-10-09T08:15:48Z</time>
      </trkpt>
      <trkpt lat="49.37307" lon="1.49676">
        <ele>96.059029</ele>
        <time>2017-10-09T08:15:53Z</time>
      </trkpt>
      <trkpt lat="49.37303" lon="1.4968">
        <ele>95.660004</ele>
        <time>2017-10-09T08:15:58Z</time>
      </trkpt>
      <trkpt lat="49.37297" lon="1.49678">
        <ele>95.550003</ele>
        <time>2017-10-09T08:16:11Z</time>
      </trkpt>
      <trkpt lat="49.37299" lon="1.49671">
        <ele>95.696251</ele>
        <time>2017-10-09T08:16:15Z</time>
      </trkpt>
      <trkpt lat="49.37294" lon="1.49655">
        <ele>96.131897</ele>
        <time>2017-10-09T08:16:34Z</time>
      </trkpt>
      <trkpt lat="49.37294" lon="1.49656">
        <ele>96.072998</ele>
        <time>2017-10-09T08:16:58Z</time>
      </trkpt>
      <trkpt lat="49.37296" lon="1.49665">
        <ele>95.72625</ele>
        <time>2017-10-09T08:19:09Z</time>
      </trkpt>
      <trkpt lat="49.37292" lon="1.49678">
        <ele>95.445</ele>
        <time>2017-10-09T08:19:31Z</time>
      </trkpt>
      <trkpt lat="49.3728" lon="1.49693">
        <ele>94.947502</ele>
        <time>2017-10-09T08:19:59Z</time>
      </trkpt>
      <trkpt lat="49.37274" lon="1.49699">
        <ele>94.747498</ele>
        <time>2017-10-09T08:20:15Z</time>
      </trkpt>
      <trkpt lat="49.37266" lon="1.49715">
        <ele>94.323753</ele>
        <time>2017-10-09T08:20:22Z</time>
      </trkpt>
      <trkpt lat="49.37251" lon="1.49749">
        <ele>94.581497</ele>
        <time>2017-10-09T08:20:34Z</time>
      </trkpt>
      <trkpt lat="49.37246" lon="1.49738">
        <ele>95.261627</ele>
        <time>2017-10-09T08:20:40Z</time>
      </trkpt>
      <trkpt lat="49.37246" lon="1.49648">
        <ele>96.25441</ele>
        <time>2017-10-09T08:20:59Z</time>
      </trkpt>
      <trkpt lat="49.37246" lon="1.49642">
        <ele>96.261826</ele>
        <time>2017-10-09T08:21:00Z</time>
      </trkpt>
      <trkpt lat="49.37223" lon="1.49502">
        <ele>94.124374</ele>
        <time>2017-10-09T08:21:16Z</time>
      </trkpt>
      <trkpt lat="49.37208" lon="1.4934">
        <ele>91.4832</ele>
        <time>2017-10-09T08:21:35Z</time>
      </trkpt>
      <trkpt lat="49.37225" lon="1.4924">
        <ele>91.060127</ele>
        <time>2017-10-09T08:21:48Z</time>
      </trkpt>
      <trkpt lat="49.37217" lon="1.49217">
        <ele>90.281898</ele>
        <time>2017-10-09T08:21:53Z</time>
      </trkpt>
      <trkpt lat="49.3719" lon="1.49196">
        <ele>94.291649</ele>
        <time>2017-10-09T08:22:10Z</time>
      </trkpt>
      <trkpt lat="49.37171" lon="1.4916">
        <ele>96.206749</ele>
        <time>2017-10-09T08:22:22Z</time>
      </trkpt>
      <trkpt lat="49.37147" lon="1.49099">
        <ele>96.888771</ele>
        <time>2017-10-09T08:22:35Z</time>
      </trkpt>
      <trkpt lat="49.37129" lon="1.49052">
        <ele>96.385002</ele>
        <time>2017-10-09T08:22:49Z</time>
      </trkpt>
      <trkpt lat="49.37118" lon="1.48995">
        <ele>94.138748</ele>
        <time>2017-10-09T08:23:00Z</time>
      </trkpt>
      <trkpt lat="49.37117" lon="1.48949">
        <ele>92.933853</ele>
        <time>2017-10-09T08:23:12Z</time>
      </trkpt>
      <trkpt lat="49.37111" lon="1.48911">
        <ele>93.871048</ele>
        <time>2017-10-09T08:23:27Z</time>
      </trkpt>
      <trkpt lat="49.37095" lon="1.48884">
        <ele>96.234001</ele>
        <time>2017-10-09T08:23:38Z</time>
      </trkpt>
      <trkpt lat="49.37079" lon="1.48858">
        <ele>98.131264</ele>
        <time>2017-10-09T08:23:50Z</time>
      </trkpt>
      <trkpt lat="49.37061" lon="1.48829">
        <ele>99.583</ele>
        <time>2017-10-09T08:24:01Z</time>
      </trkpt>
      <trkpt lat="49.37034" lon="1.48797">
        <ele>101.307388</ele>
        <time>2017-10-09T08:24:18Z</time>
      </trkpt>
      <trkpt lat="49.37017" lon="1.48773">
        <ele>102.863747</ele>
        <time>2017-10-09T08:24:30Z</time>
      </trkpt>
      <trkpt lat="49.37002" lon="1.48753">
        <ele>104.265747</ele>
        <time>2017-10-09T08:24:41Z</time>
      </trkpt>
      <trkpt lat="49.36986" lon="1.48725">
        <ele>104.753166</ele>
        <time>2017-10-09T08:24:55Z</time>
      </trkpt>
      <trkpt lat="49.3697" lon="1.48696">
        <ele>105.612503</ele>
        <time>2017-10-09T08:25:08Z</time>
      </trkpt>
      <trkpt lat="49.36957" lon="1.48669">
        <ele>106.107498</ele>
        <time>2017-10-09T08:25:20Z</time>
      </trkpt>
      <trkpt lat="49.36944" lon="1.48626">
        <ele>105.240372</ele>
        <time>2017-10-09T08:25:33Z</time>
      </trkpt>
      <trkpt lat="49.36931" lon="1.48582">
        <ele>104.313499</ele>
        <time>2017-10-09T08:25:45Z</time>
      </trkpt>
      <trkpt lat="49.36921" lon="1.48534">
        <ele>103.248497</ele>
        <time>2017-10-09T08:25:55Z</time>
      </trkpt>
      <trkpt lat="49.3689" lon="1.48453">
        <ele>103.088402</ele>
        <time>2017-10-09T08:26:08Z</time>
      </trkpt>
      <trkpt lat="49.36884" lon="1.48433">
        <ele>102.556274</ele>
        <time>2017-10-09T08:26:11Z</time>
      </trkpt>
      <trkpt lat="49.36864" lon="1.48351">
        <ele>100.124451</ele>
        <time>2017-10-09T08:26:23Z</time>
      </trkpt>
      <trkpt lat="49.36851" lon="1.48303">
        <ele>97.629997</ele>
        <time>2017-10-09T08:26:36Z</time>
      </trkpt>
      <trkpt lat="49.3684" lon="1.48266">
        <ele>96.907501</ele>
        <time>2017-10-09T08:26:47Z</time>
      </trkpt>
      <trkpt lat="49.36829" lon="1.48231">
        <ele>97.122498</ele>
        <time>2017-10-09T08:27:00Z</time>
      </trkpt>
      <trkpt lat="49.36816" lon="1.48196">
        <ele>98.288322</ele>
        <time>2017-10-09T08:27:14Z</time>
      </trkpt>
      <trkpt lat="49.36811" lon="1.48182">
        <ele>98.798027</ele>
        <time>2017-10-09T08:27:27Z</time>
      </trkpt>
      <trkpt lat="49.3681" lon="1.4818">
        <ele>98.763786</ele>
        <time>2017-10-09T08:28:24Z</time>
      </trkpt>
      <trkpt lat="49.36797" lon="1.48132">
        <ele>98.609909</ele>
        <time>2017-10-09T08:29:28Z</time>
      </trkpt>
      <trkpt lat="49.36797" lon="1.48132">
        <ele>98.629013</ele>
        <time>2017-10-09T08:29:37Z</time>
      </trkpt>
      <trkpt lat="49.36794" lon="1.48069">
        <ele>95.185753</ele>
        <time>2017-10-09T08:29:51Z</time>
      </trkpt>
      <trkpt lat="49.36796" lon="1.48021">
        <ele>92.052994</ele>
        <time>2017-10-09T08:30:03Z</time>
      </trkpt>
      <trkpt lat="49.36802" lon="1.48005">
        <ele>90.195374</ele>
        <time>2017-10-09T08:30:08Z</time>
      </trkpt>
      <trkpt lat="49.36818" lon="1.47985">
        <ele>87.903603</ele>
        <time>2017-10-09T08:30:13Z</time>
      </trkpt>
      <trkpt lat="49.3686" lon="1.47959">
        <ele>86.038452</ele>
        <time>2017-10-09T08:30:28Z</time>
      </trkpt>
      <trkpt lat="49.36905" lon="1.47929">
        <ele>89.925598</ele>
        <time>2017-10-09T08:30:45Z</time>
      </trkpt>
      <trkpt lat="49.36916" lon="1.47919">
        <ele>91.616379</ele>
        <time>2017-10-09T08:30:52Z</time>
      </trkpt>
      <trkpt lat="49.36944" lon="1.47898">
        <ele>95.940002</ele>
        <time>2017-10-09T08:31:12Z</time>
      </trkpt>
      <trkpt lat="49.36964" lon="1.47912">
        <ele>97.364998</ele>
        <time>2017-10-09T08:31:29Z</time>
      </trkpt>
      <trkpt lat="49.36991" lon="1.47935">
        <ele>98.881866</ele>
        <time>2017-10-09T08:31:45Z</time>
      </trkpt>
      <trkpt lat="49.37017" lon="1.47925">
        <ele>101.630974</ele>
        <time>2017-10-09T08:32:01Z</time>
      </trkpt>
      <trkpt lat="49.37041" lon="1.47893">
        <ele>104.729248</ele>
        <time>2017-10-09T08:32:19Z</time>
      </trkpt>
      <trkpt lat="49.37057" lon="1.47875">
        <ele>106.034302</ele>
        <time>2017-10-09T08:32:33Z</time>
      </trkpt>
      <trkpt lat="49.37077" lon="1.47847">
        <ele>109.891342</ele>
        <time>2017-10-09T08:32:50Z</time>
      </trkpt>
      <trkpt lat="49.37102" lon="1.47824">
        <ele>112.773521</ele>
        <time>2017-10-09T08:33:08Z</time>
      </trkpt>
      <trkpt lat="49.37128" lon="1.47794">
        <ele>116.441299</ele>
        <time>2017-10-09T08:33:28Z</time>
      </trkpt>
      <trkpt lat="49.37147" lon="1.47771">
        <ele>119.305397</ele>
        <time>2017-10-09T08:33:45Z</time>
      </trkpt>
      <trkpt lat="49.3717" lon="1.47744">
        <ele>120.493103</ele>
        <time>2017-10-09T08:34:06Z</time>
      </trkpt>
      <trkpt lat="49.37194" lon="1.47715">
        <ele>122.863998</ele>
        <time>2017-10-09T08:34:25Z</time>
      </trkpt>
      <trkpt lat="49.3721" lon="1.47691">
        <ele>124.491661</ele>
        <time>2017-10-09T08:34:41Z</time>
      </trkpt>
      <trkpt lat="49.37236" lon="1.47664">
        <ele>126.454002</ele>
        <time>2017-10-09T08:35:00Z</time>
      </trkpt>
      <trkpt lat="49.3725" lon="1.47642">
        <ele>128.665756</ele>
        <time>2017-10-09T08:35:15Z</time>
      </trkpt>
      <trkpt lat="49.37268" lon="1.47613">
        <ele>131.786499</ele>
        <time>2017-10-09T08:35:35Z</time>
      </trkpt>
      <trkpt lat="49.37284" lon="1.47592">
        <ele>133.912994</ele>
        <time>2017-10-09T08:35:53Z</time>
      </trkpt>
      <trkpt lat="49.37295" lon="1.47575">
        <ele>136.457382</ele>
        <time>2017-10-09T08:36:05Z</time>
      </trkpt>
      <trkpt lat="49.37312" lon="1.47552">
        <ele>139.834595</ele>
        <time>2017-10-09T08:36:26Z</time>
      </trkpt>
      <trkpt lat="49.37333" lon="1.47519">
        <ele>142.736877</ele>
        <time>2017-10-09T08:36:49Z</time>
      </trkpt>
      <trkpt lat="49.37348" lon="1.47499">
        <ele>145.848633</ele>
        <time>2017-10-09T08:37:06Z</time>
      </trkpt>
      <trkpt lat="49.37372" lon="1.47462">
        <ele>150.351898</ele>
        <time>2017-10-09T08:37:32Z</time>
      </trkpt>
      <trkpt lat="49.37392" lon="1.47431">
        <ele>153.027344</ele>
        <time>2017-10-09T08:37:52Z</time>
      </trkpt>
      <trkpt lat="49.37413" lon="1.47407">
        <ele>154.894638</ele>
        <time>2017-10-09T08:38:13Z</time>
      </trkpt>
      <trkpt lat="49.37432" lon="1.47402">
        <ele>155.801987</ele>
        <time>2017-10-09T08:38:29Z</time>
      </trkpt>
      <trkpt lat="49.37441" lon="1.47406">
        <ele>156.082504</ele>
        <time>2017-10-09T08:38:35Z</time>
      </trkpt>
      <trkpt lat="49.37464" lon="1.47403">
        <ele>157.296249</ele>
        <time>2017-10-09T08:38:51Z</time>
      </trkpt>
      <trkpt lat="49.37484" lon="1.47406">
        <ele>158.622314</ele>
        <time>2017-10-09T08:39:05Z</time>
      </trkpt>
      <trkpt lat="49.37503" lon="1.47407">
        <ele>160.055267</ele>
        <time>2017-10-09T08:39:17Z</time>
      </trkpt>
      <trkpt lat="49.37515" lon="1.47406">
        <ele>161.040878</ele>
        <time>2017-10-09T08:39:26Z</time>
      </trkpt>
      <trkpt lat="49.37539" lon="1.47408">
        <ele>162.470139</ele>
        <time>2017-10-09T08:39:39Z</time>
      </trkpt>
      <trkpt lat="49.37558" lon="1.47407">
        <ele>163.622635</ele>
        <time>2017-10-09T08:39:50Z</time>
      </trkpt>
      <trkpt lat="49.3756" lon="1.47407">
        <ele>163.710251</ele>
        <time>2017-10-09T08:39:51Z</time>
      </trkpt>
      <trkpt lat="49.37582" lon="1.47407">
        <ele>164.835342</ele>
        <time>2017-10-09T08:40:03Z</time>
      </trkpt>
      <trkpt lat="49.37609" lon="1.47414">
        <ele>166.199997</ele>
        <time>2017-10-09T08:40:17Z</time>
      </trkpt>
      <trkpt lat="49.37621" lon="1.47414">
        <ele>166.729996</ele>
        <time>2017-10-09T08:40:23Z</time>
      </trkpt>
      <trkpt lat="49.37627" lon="1.47412">
        <ele>166.979996</ele>
        <time>2017-10-09T08:40:26Z</time>
      </trkpt>
      <trkpt lat="49.37661" lon="1.47417">
        <ele>168.539993</ele>
        <time>2017-10-09T08:40:42Z</time>
      </trkpt>
      <trkpt lat="49.37689" lon="1.47415">
        <ele>169.779999</ele>
        <time>2017-10-09T08:40:56Z</time>
      </trkpt>
      <trkpt lat="49.37718" lon="1.47415">
        <ele>170.761246</ele>
        <time>2017-10-09T08:41:08Z</time>
      </trkpt>
      <trkpt lat="49.37749" lon="1.47415">
        <ele>171.671249</ele>
        <time>2017-10-09T08:41:21Z</time>
      </trkpt>
      <trkpt lat="49.37755" lon="1.47412">
        <ele>171.753754</ele>
        <time>2017-10-09T08:41:24Z</time>
      </trkpt>
      <trkpt lat="49.37787" lon="1.47386">
        <ele>172.116623</ele>
        <time>2017-10-09T08:41:39Z</time>
      </trkpt>
      <trkpt lat="49.37819" lon="1.47362">
        <ele>172.544434</ele>
        <time>2017-10-09T08:41:53Z</time>
      </trkpt>
      <trkpt lat="49.37831" lon="1.47355">
        <ele>172.617996</ele>
        <time>2017-10-09T08:41:58Z</time>
      </trkpt>
      <trkpt lat="49.37862" lon="1.47343">
        <ele>172.861252</ele>
        <time>2017-10-09T08:42:11Z</time>
      </trkpt>
      <trkpt lat="49.37878" lon="1.47329">
        <ele>173.024246</ele>
        <time>2017-10-09T08:42:22Z</time>
      </trkpt>
      <trkpt lat="49.37911" lon="1.47297">
        <ele>172.782501</ele>
        <time>2017-10-09T08:42:34Z</time>
      </trkpt>
      <trkpt lat="49.37947" lon="1.47281">
        <ele>172.552505</ele>
        <time>2017-10-09T08:42:45Z</time>
      </trkpt>
      <trkpt lat="49.37978" lon="1.4725">
        <ele>171.779999</ele>
        <time>2017-10-09T08:42:57Z</time>
      </trkpt>
      <trkpt lat="49.38026" lon="1.47216">
        <ele>170.201248</ele>
        <time>2017-10-09T08:43:10Z</time>
      </trkpt>
      <trkpt lat="49.38081" lon="1.47187">
        <ele>168.585007</ele>
        <time>2017-10-09T08:43:24Z</time>
      </trkpt>
      <trkpt lat="49.38121" lon="1.47169">
        <ele>167.42662</ele>
        <time>2017-10-09T08:43:34Z</time>
      </trkpt>
      <trkpt lat="49.3814" lon="1.47162">
        <ele>166.800629</ele>
        <time>2017-10-09T08:43:38Z</time>
      </trkpt>
      <trkpt lat="49.38163" lon="1.47157">
        <ele>165.58284</ele>
        <time>2017-10-09T08:43:42Z</time>
      </trkpt>
      <trkpt lat="49.38203" lon="1.47153">
        <ele>162.954376</ele>
        <time>2017-10-09T08:43:53Z</time>
      </trkpt>
      <trkpt lat="49.38238" lon="1.4715">
        <ele>160.658691</ele>
        <time>2017-10-09T08:44:02Z</time>
      </trkpt>
      <trkpt lat="49.38236" lon="1.47111">
        <ele>160.223999</ele>
        <time>2017-10-09T08:44:15Z</time>
      </trkpt>
      <trkpt lat="49.38227" lon="1.4704">
        <ele>159.263748</ele>
        <time>2017-10-09T08:44:27Z</time>
      </trkpt>
      <trkpt lat="49.38215" lon="1.46948">
        <ele>159.190399</ele>
        <time>2017-10-09T08:44:42Z</time>
      </trkpt>
      <trkpt lat="49.38205" lon="1.46884">
        <ele>158.287415</ele>
        <time>2017-10-09T08:44:54Z</time>
      </trkpt>
      <trkpt lat="49.38168" lon="1.4678">
        <ele>155.219498</ele>
        <time>2017-10-09T08:45:08Z</time>
      </trkpt>
      <trkpt lat="49.38123" lon="1.46666">
        <ele>151.439377</ele>
        <time>2017-10-09T08:45:21Z</time>
      </trkpt>
      <trkpt lat="49.38099" lon="1.46614">
        <ele>149.545349</ele>
        <time>2017-10-09T08:45:27Z</time>
      </trkpt>
      <trkpt lat="49.3809" lon="1.46599">
        <ele>148.945251</ele>
        <time>2017-10-09T08:45:29Z</time>
      </trkpt>
      <trkpt lat="49.38069" lon="1.46576">
        <ele>147.427231</ele>
        <time>2017-10-09T08:45:33Z</time>
      </trkpt>
      <trkpt lat="49.37985" lon="1.4651">
        <ele>142.232971</ele>
        <time>2017-10-09T08:45:46Z</time>
      </trkpt>
      <trkpt lat="49.37927" lon="1.46369">
        <ele>134.972382</ele>
        <time>2017-10-09T08:46:00Z</time>
      </trkpt>
      <trkpt lat="49.37891" lon="1.46255">
        <ele>130.758957</ele>
        <time>2017-10-09T08:46:11Z</time>
      </trkpt>
      <trkpt lat="49.37889" lon="1.46245">
        <ele>130.447601</ele>
        <time>2017-10-09T08:46:12Z</time>
      </trkpt>
      <trkpt lat="49.37886" lon="1.46201">
        <ele>128.643997</ele>
        <time>2017-10-09T08:46:16Z</time>
      </trkpt>
      <trkpt lat="49.37894" lon="1.46149">
        <ele>126.950249</ele>
        <time>2017-10-09T08:46:21Z</time>
      </trkpt>
      <trkpt lat="49.37949" lon="1.4605">
        <ele>122.658623</ele>
        <time>2017-10-09T08:46:33Z</time>
      </trkpt>
      <trkpt lat="49.37963" lon="1.46023">
        <ele>123.883751</ele>
        <time>2017-10-09T08:46:36Z</time>
      </trkpt>
      <trkpt lat="49.37972" lon="1.45956">
        <ele>124.546249</ele>
        <time>2017-10-09T08:46:43Z</time>
      </trkpt>
      <trkpt lat="49.37969" lon="1.45941">
        <ele>123.967499</ele>
        <time>2017-10-09T08:46:45Z</time>
      </trkpt>
      <trkpt lat="49.37942" lon="1.4584">
        <ele>119.081253</ele>
        <time>2017-10-09T08:46:57Z</time>
      </trkpt>
      <trkpt lat="49.37932" lon="1.45796">
        <ele>117.714378</ele>
        <time>2017-10-09T08:47:02Z</time>
      </trkpt>
      <trkpt lat="49.37873" lon="1.45671">
        <ele>112.555634</ele>
        <time>2017-10-09T08:47:17Z</time>
      </trkpt>
      <trkpt lat="49.3782" lon="1.45593">
        <ele>107.937904</ele>
        <time>2017-10-09T08:47:28Z</time>
      </trkpt>
      <trkpt lat="49.37806" lon="1.45578">
        <ele>108.854187</ele>
        <time>2017-10-09T08:47:31Z</time>
      </trkpt>
      <trkpt lat="49.37717" lon="1.45541">
        <ele>102.796837</ele>
        <time>2017-10-09T08:47:45Z</time>
      </trkpt>
      <trkpt lat="49.37643" lon="1.45514">
        <ele>98.941498</ele>
        <time>2017-10-09T08:47:56Z</time>
      </trkpt>
      <trkpt lat="49.3761" lon="1.4552">
        <ele>99.455162</ele>
        <time>2017-10-09T08:48:05Z</time>
      </trkpt>
      <trkpt lat="49.37587" lon="1.45541">
        <ele>101.426643</ele>
        <time>2017-10-09T08:48:21Z</time>
      </trkpt>
      <trkpt lat="49.37562" lon="1.4557">
        <ele>104.026848</ele>
        <time>2017-10-09T08:48:38Z</time>
      </trkpt>
      <trkpt lat="49.37535" lon="1.45609">
        <ele>106.115623</ele>
        <time>2017-10-09T08:48:57Z</time>
      </trkpt>
      <trkpt lat="49.37522" lon="1.45644">
        <ele>110.334564</ele>
        <time>2017-10-09T08:49:13Z</time>
      </trkpt>
      <trkpt lat="49.37507" lon="1.45678">
        <ele>112.344101</ele>
        <time>2017-10-09T08:49:28Z</time>
      </trkpt>
      <trkpt lat="49.37499" lon="1.45716">
        <ele>116.079552</ele>
        <time>2017-10-09T08:49:43Z</time>
      </trkpt>
      <trkpt lat="49.37491" lon="1.45753">
        <ele>119.50769</ele>
        <time>2017-10-09T08:49:59Z</time>
      </trkpt>
      <trkpt lat="49.37488" lon="1.45791">
        <ele>122.263344</ele>
        <time>2017-10-09T08:50:14Z</time>
      </trkpt>
      <trkpt lat="49.37478" lon="1.45832">
        <ele>124.553558</ele>
        <time>2017-10-09T08:50:32Z</time>
      </trkpt>
      <trkpt lat="49.37467" lon="1.45875">
        <ele>125.90567</ele>
        <time>2017-10-09T08:50:46Z</time>
      </trkpt>
      <trkpt lat="49.37454" lon="1.45914">
        <ele>127.442398</ele>
        <time>2017-10-09T08:51:02Z</time>
      </trkpt>
      <trkpt lat="49.3744" lon="1.45951">
        <ele>129.459229</ele>
        <time>2017-10-09T08:51:19Z</time>
      </trkpt>
      <trkpt lat="49.37411" lon="1.46004">
        <ele>131.842133</ele>
        <time>2017-10-09T08:51:49Z</time>
      </trkpt>
      <trkpt lat="49.37391" lon="1.46043">
        <ele>134.683502</ele>
        <time>2017-10-09T08:52:10Z</time>
      </trkpt>
      <trkpt lat="49.37379" lon="1.46067">
        <ele>135.323822</ele>
        <time>2017-10-09T08:52:25Z</time>
      </trkpt>
      <trkpt lat="49.37363" lon="1.46083">
        <ele>135.981689</ele>
        <time>2017-10-09T08:52:42Z</time>
      </trkpt>
      <trkpt lat="49.37348" lon="1.46079">
        <ele>137.808823</ele>
        <time>2017-10-09T08:52:56Z</time>
      </trkpt>
      <trkpt lat="49.37325" lon="1.46087">
        <ele>141.215546</ele>
        <time>2017-10-09T08:53:15Z</time>
      </trkpt>
      <trkpt lat="49.37302" lon="1.46086">
        <ele>143.693634</ele>
        <time>2017-10-09T08:53:34Z</time>
      </trkpt>
      <trkpt lat="49.37269" lon="1.46085">
        <ele>146.292755</ele>
        <time>2017-10-09T08:53:56Z</time>
      </trkpt>
      <trkpt lat="49.37249" lon="1.4609">
        <ele>147.040756</ele>
        <time>2017-10-09T08:54:12Z</time>
      </trkpt>
      <trkpt lat="49.3723" lon="1.46096">
        <ele>148.011246</ele>
        <time>2017-10-09T08:54:29Z</time>
      </trkpt>
      <trkpt lat="49.37212" lon="1.46082">
        <ele>147.874695</ele>
        <time>2017-10-09T08:54:41Z</time>
      </trkpt>
      <trkpt lat="49.37208" lon="1.46068">
        <ele>147.355545</ele>
        <time>2017-10-09T08:54:55Z</time>
      </trkpt>
      <trkpt lat="49.37209" lon="1.46064">
        <ele>147.071121</ele>
        <time>2017-10-09T08:55:11Z</time>
      </trkpt>
      <trkpt lat="49.37208" lon="1.46045">
        <ele>146.228378</ele>
        <time>2017-10-09T08:55:28Z</time>
      </trkpt>
      <trkpt lat="49.37208" lon="1.46044">
        <ele>146.143295</ele>
        <time>2017-10-09T08:55:29Z</time>
      </trkpt>
      <trkpt lat="49.37205" lon="1.45985">
        <ele>146.216156</ele>
        <time>2017-10-09T08:55:41Z</time>
      </trkpt>
      <trkpt lat="49.37204" lon="1.45951">
        <ele>147.565689</ele>
        <time>2017-10-09T08:55:56Z</time>
      </trkpt>
      <trkpt lat="49.37202" lon="1.45911">
        <ele>150.272369</ele>
        <time>2017-10-09T08:56:13Z</time>
      </trkpt>
      <trkpt lat="49.37202" lon="1.45908">
        <ele>150.495026</ele>
        <time>2017-10-09T08:56:35Z</time>
      </trkpt>
      <trkpt lat="49.37203" lon="1.45872">
        <ele>152.703751</ele>
        <time>2017-10-09T09:01:41Z</time>
      </trkpt>
      <trkpt lat="49.37201" lon="1.45834">
        <ele>154.225006</ele>
        <time>2017-10-09T09:01:57Z</time>
      </trkpt>
      <trkpt lat="49.37199" lon="1.45796">
        <ele>154.880005</ele>
        <time>2017-10-09T09:02:12Z</time>
      </trkpt>
      <trkpt lat="49.37197" lon="1.45763">
        <ele>154.042496</ele>
        <time>2017-10-09T09:02:26Z</time>
      </trkpt>
      <trkpt lat="49.37188" lon="1.45709">
        <ele>152.094742</ele>
        <time>2017-10-09T09:02:38Z</time>
      </trkpt>
      <trkpt lat="49.37182" lon="1.45707">
        <ele>152.153595</ele>
        <time>2017-10-09T09:02:41Z</time>
      </trkpt>
      <trkpt lat="49.37151" lon="1.45695">
        <ele>152.601944</ele>
        <time>2017-10-09T09:02:57Z</time>
      </trkpt>
      <trkpt lat="49.37138" lon="1.45683">
        <ele>152.512497</ele>
        <time>2017-10-09T09:03:02Z</time>
      </trkpt>
      <trkpt lat="49.37099" lon="1.45661">
        <ele>152.356247</ele>
        <time>2017-10-09T09:03:18Z</time>
      </trkpt>
      <trkpt lat="49.37065" lon="1.4565">
        <ele>151.912506</ele>
        <time>2017-10-09T09:03:31Z</time>
      </trkpt>
      <trkpt lat="49.37029" lon="1.45643">
        <ele>151.567505</ele>
        <time>2017-10-09T09:03:44Z</time>
      </trkpt>
      <trkpt lat="49.37002" lon="1.45663">
        <ele>152.304993</ele>
        <time>2017-10-09T09:03:54Z</time>
      </trkpt>
      <trkpt lat="49.36973" lon="1.45697">
        <ele>152.789993</ele>
        <time>2017-10-09T09:04:06Z</time>
      </trkpt>
      <trkpt lat="49.36944" lon="1.45736">
        <ele>153.274994</ele>
        <time>2017-10-09T09:04:18Z</time>
      </trkpt>
      <trkpt lat="49.36913" lon="1.45769">
        <ele>153.183746</ele>
        <time>2017-10-09T09:04:30Z</time>
      </trkpt>
      <trkpt lat="49.36885" lon="1.45811">
        <ele>153.166245</ele>
        <time>2017-10-09T09:04:42Z</time>
      </trkpt>
      <trkpt lat="49.36846" lon="1.45844">
        <ele>152.146255</ele>
        <time>2017-10-09T09:04:55Z</time>
      </trkpt>
      <trkpt lat="49.36844" lon="1.45846">
        <ele>152.071243</ele>
        <time>2017-10-09T09:04:56Z</time>
      </trkpt>
      <trkpt lat="49.3681" lon="1.45832">
        <ele>150.195007</ele>
        <time>2017-10-09T09:05:09Z</time>
      </trkpt>
      <trkpt lat="49.36807" lon="1.45829">
        <ele>150</ele>
        <time>2017-10-09T09:05:10Z</time>
      </trkpt>
      <trkpt lat="49.36745" lon="1.45765">
        <ele>145.386856</ele>
        <time>2017-10-09T09:05:25Z</time>
      </trkpt>
      <trkpt lat="49.36674" lon="1.457">
        <ele>140.600342</ele>
        <time>2017-10-09T09:05:37Z</time>
      </trkpt>
      <trkpt lat="49.36579" lon="1.45636">
        <ele>136.431122</ele>
        <time>2017-10-09T09:05:50Z</time>
      </trkpt>
      <trkpt lat="49.365" lon="1.45595">
        <ele>132.717499</ele>
        <time>2017-10-09T09:06:01Z</time>
      </trkpt>
      <trkpt lat="49.36453" lon="1.45538">
        <ele>130.97345</ele>
        <time>2017-10-09T09:06:10Z</time>
      </trkpt>
      <trkpt lat="49.36392" lon="1.45457">
        <ele>129</ele>
        <time>2017-10-09T09:06:23Z</time>
      </trkpt>
      <trkpt lat="49.36335" lon="1.4537">
        <ele>126.276413</ele>
        <time>2017-10-09T09:06:37Z</time>
      </trkpt>
      <trkpt lat="49.36333" lon="1.45366">
        <ele>126.130501</ele>
        <time>2017-10-09T09:06:53Z</time>
      </trkpt>
      <trkpt lat="49.36333" lon="1.45366">
        <ele>126.130501</ele>
        <time>2017-10-09T09:07:03Z</time>
      </trkpt>
      <trkpt lat="49.36308" lon="1.45335">
        <ele>125.526886</ele>
        <time>2017-10-09T09:07:14Z</time>
      </trkpt>
      <trkpt lat="49.36266" lon="1.45273">
        <ele>123.167503</ele>
        <time>2017-10-09T09:07:28Z</time>
      </trkpt>
      <trkpt lat="49.36186" lon="1.45157">
        <ele>122.747215</ele>
        <time>2017-10-09T09:07:49Z</time>
      </trkpt>
      <trkpt lat="49.36158" lon="1.45119">
        <ele>122.665604</ele>
        <time>2017-10-09T09:07:58Z</time>
      </trkpt>
      <trkpt lat="49.3615" lon="1.45096">
        <ele>123.641708</ele>
        <time>2017-10-09T09:08:03Z</time>
      </trkpt>
      <trkpt lat="49.36142" lon="1.45011">
        <ele>126.212029</ele>
        <time>2017-10-09T09:08:20Z</time>
      </trkpt>
      <trkpt lat="49.36138" lon="1.44949">
        <ele>127.460297</ele>
        <time>2017-10-09T09:08:35Z</time>
      </trkpt>
      <trkpt lat="49.36133" lon="1.44872">
        <ele>128.27597</ele>
        <time>2017-10-09T09:08:56Z</time>
      </trkpt>
      <trkpt lat="49.36126" lon="1.44787">
        <ele>128.009995</ele>
        <time>2017-10-09T09:09:16Z</time>
      </trkpt>
      <trkpt lat="49.36118" lon="1.44704">
        <ele>127.324997</ele>
        <time>2017-10-09T09:09:31Z</time>
      </trkpt>
      <trkpt lat="49.36109" lon="1.44596">
        <ele>125.39875</ele>
        <time>2017-10-09T09:09:47Z</time>
      </trkpt>
      <trkpt lat="49.36097" lon="1.44423">
        <ele>122.849998</ele>
        <time>2017-10-09T09:10:06Z</time>
      </trkpt>
      <trkpt lat="49.36091" lon="1.44323">
        <ele>123.522499</ele>
        <time>2017-10-09T09:10:18Z</time>
      </trkpt>
      <trkpt lat="49.3608" lon="1.44204">
        <ele>123.150002</ele>
        <time>2017-10-09T09:10:33Z</time>
      </trkpt>
      <trkpt lat="49.36079" lon="1.4419">
        <ele>123.129997</ele>
        <time>2017-10-09T09:10:35Z</time>
      </trkpt>
      <trkpt lat="49.36068" lon="1.4407">
        <ele>123.418175</ele>
        <time>2017-10-09T09:10:53Z</time>
      </trkpt>
      <trkpt lat="49.36057" lon="1.43926">
        <ele>124.723434</ele>
        <time>2017-10-09T09:11:13Z</time>
      </trkpt>
      <trkpt lat="49.36047" lon="1.43778">
        <ele>125</ele>
        <time>2017-10-09T09:11:34Z</time>
      </trkpt>
      <trkpt lat="49.36047" lon="1.43757">
        <ele>124.740097</ele>
        <time>2017-10-09T09:11:37Z</time>
      </trkpt>
      <trkpt lat="49.36045" lon="1.43699">
        <ele>123.225662</ele>
        <time>2017-10-09T09:11:45Z</time>
      </trkpt>
      <trkpt lat="49.36044" lon="1.43672">
        <ele>123.260002</ele>
        <time>2017-10-09T09:11:49Z</time>
      </trkpt>
      <trkpt lat="49.36035" lon="1.43564">
        <ele>122.971542</ele>
        <time>2017-10-09T09:12:03Z</time>
      </trkpt>
      <trkpt lat="49.36035" lon="1.43557">
        <ele>122.873077</ele>
        <time>2017-10-09T09:12:04Z</time>
      </trkpt>
      <trkpt lat="49.36049" lon="1.43506">
        <ele>120.286522</ele>
        <time>2017-10-09T09:12:16Z</time>
      </trkpt>
      <trkpt lat="49.36054" lon="1.435">
        <ele>119.55587</ele>
        <time>2017-10-09T09:12:17Z</time>
      </trkpt>
      <trkpt lat="49.36113" lon="1.43437">
        <ele>109.453751</ele>
        <time>2017-10-09T09:12:29Z</time>
      </trkpt>
      <trkpt lat="49.36123" lon="1.43426">
        <ele>107.491577</ele>
        <time>2017-10-09T09:12:33Z</time>
      </trkpt>
      <trkpt lat="49.36129" lon="1.43432">
        <ele>106.761208</ele>
        <time>2017-10-09T09:12:38Z</time>
      </trkpt>
      <trkpt lat="49.36141" lon="1.43448">
        <ele>105.8825</ele>
        <time>2017-10-09T09:12:43Z</time>
      </trkpt>
      <trkpt lat="49.36149" lon="1.43458">
        <ele>105.612503</ele>
        <time>2017-10-09T09:12:45Z</time>
      </trkpt>
      <trkpt lat="49.36202" lon="1.43518">
        <ele>103.363571</ele>
        <time>2017-10-09T09:12:58Z</time>
      </trkpt>
      <trkpt lat="49.36234" lon="1.43557">
        <ele>102.30162</ele>
        <time>2017-10-09T09:13:11Z</time>
      </trkpt>
      <trkpt lat="49.36294" lon="1.43625">
        <ele>98.200005</ele>
        <time>2017-10-09T09:13:25Z</time>
      </trkpt>
      <trkpt lat="49.36298" lon="1.43629">
        <ele>98.105003</ele>
        <time>2017-10-09T09:13:26Z</time>
      </trkpt>
      <trkpt lat="49.36337" lon="1.4368">
        <ele>97.942001</ele>
        <time>2017-10-09T09:13:40Z</time>
      </trkpt>
      <trkpt lat="49.36365" lon="1.43717">
        <ele>99.452103</ele>
        <time>2017-10-09T09:13:52Z</time>
      </trkpt>
      <trkpt lat="49.36387" lon="1.43738">
        <ele>100.28685</ele>
        <time>2017-10-09T09:14:02Z</time>
      </trkpt>
      <trkpt lat="49.36392" lon="1.43733">
        <ele>99.447136</ele>
        <time>2017-10-09T09:14:07Z</time>
      </trkpt>
      <trkpt lat="49.36407" lon="1.43718">
        <ele>96.575165</ele>
        <time>2017-10-09T09:14:13Z</time>
      </trkpt>
      <trkpt lat="49.36455" lon="1.43753">
        <ele>96.007286</ele>
        <time>2017-10-09T09:14:25Z</time>
      </trkpt>
      <trkpt lat="49.3653" lon="1.43787">
        <ele>91.687225</ele>
        <time>2017-10-09T09:14:36Z</time>
      </trkpt>
      <trkpt lat="49.36644" lon="1.43828">
        <ele>88.290375</ele>
        <time>2017-10-09T09:14:50Z</time>
      </trkpt>
      <trkpt lat="49.36679" lon="1.43834">
        <ele>85.369904</ele>
        <time>2017-10-09T09:14:55Z</time>
      </trkpt>
      <trkpt lat="49.36732" lon="1.43846">
        <ele>83.652199</ele>
        <time>2017-10-09T09:15:10Z</time>
      </trkpt>
      <trkpt lat="49.36776" lon="1.43857">
        <ele>82.023476</ele>
        <time>2017-10-09T09:15:25Z</time>
      </trkpt>
      <trkpt lat="49.36827" lon="1.43876">
        <ele>79.718727</ele>
        <time>2017-10-09T09:15:42Z</time>
      </trkpt>
      <trkpt lat="49.36862" lon="1.43891">
        <ele>77.967003</ele>
        <time>2017-10-09T09:15:56Z</time>
      </trkpt>
      <trkpt lat="49.36903" lon="1.43909">
        <ele>76.294952</ele>
        <time>2017-10-09T09:16:12Z</time>
      </trkpt>
      <trkpt lat="49.36935" lon="1.43912">
        <ele>73.946236</ele>
        <time>2017-10-09T09:16:22Z</time>
      </trkpt>
      <trkpt lat="49.36975" lon="1.43916">
        <ele>71.928001</ele>
        <time>2017-10-09T09:16:33Z</time>
      </trkpt>
      <trkpt lat="49.37035" lon="1.43893">
        <ele>66.929947</ele>
        <time>2017-10-09T09:16:45Z</time>
      </trkpt>
      <trkpt lat="49.37063" lon="1.4388">
        <ele>64.659996</ele>
        <time>2017-10-09T09:16:50Z</time>
      </trkpt>
      <trkpt lat="49.3709" lon="1.43884">
        <ele>63.664402</ele>
        <time>2017-10-09T09:16:55Z</time>
      </trkpt>
      <trkpt lat="49.37111" lon="1.43899">
        <ele>63.668751</ele>
        <time>2017-10-09T09:17:00Z</time>
      </trkpt>
      <trkpt lat="49.3716" lon="1.43963">
        <ele>64.8125</ele>
        <time>2017-10-09T09:17:13Z</time>
      </trkpt>
      <trkpt lat="49.37168" lon="1.43971">
        <ele>64.996902</ele>
        <time>2017-10-09T09:17:15Z</time>
      </trkpt>
      <trkpt lat="49.37187" lon="1.43963">
        <ele>63.15966</ele>
        <time>2017-10-09T09:17:21Z</time>
      </trkpt>
      <trkpt lat="49.37201" lon="1.43886">
        <ele>60.43325</ele>
        <time>2017-10-09T09:17:31Z</time>
      </trkpt>
      <trkpt lat="49.37212" lon="1.43841">
        <ele>60.056061</ele>
        <time>2017-10-09T09:17:41Z</time>
      </trkpt>
      <trkpt lat="49.37248" lon="1.43817">
        <ele>60.654999</ele>
        <time>2017-10-09T09:17:57Z</time>
      </trkpt>
      <trkpt lat="49.37259" lon="1.43811">
        <ele>60.940426</ele>
        <time>2017-10-09T09:18:02Z</time>
      </trkpt>
      <trkpt lat="49.37283" lon="1.43768">
        <ele>63.251675</ele>
        <time>2017-10-09T09:18:20Z</time>
      </trkpt>
      <trkpt lat="49.37303" lon="1.43731">
        <ele>65.307503</ele>
        <time>2017-10-09T09:18:37Z</time>
      </trkpt>
      <trkpt lat="49.37325" lon="1.43683">
        <ele>67.039284</ele>
        <time>2017-10-09T09:19:04Z</time>
      </trkpt>
      <trkpt lat="49.37342" lon="1.43642">
        <ele>69.889999</ele>
        <time>2017-10-09T09:19:32Z</time>
      </trkpt>
      <trkpt lat="49.37345" lon="1.43612">
        <ele>71.125</ele>
        <time>2017-10-09T09:19:51Z</time>
      </trkpt>
      <trkpt lat="49.37344" lon="1.43606">
        <ele>71.247559</ele>
        <time>2017-10-09T09:19:56Z</time>
      </trkpt>
      <trkpt lat="49.37336" lon="1.43575">
        <ele>75.091408</ele>
        <time>2017-10-09T09:20:13Z</time>
      </trkpt>
      <trkpt lat="49.37324" lon="1.43543">
        <ele>77.329437</ele>
        <time>2017-10-09T09:20:32Z</time>
      </trkpt>
      <trkpt lat="49.37313" lon="1.43516">
        <ele>81.099045</ele>
        <time>2017-10-09T09:20:50Z</time>
      </trkpt>
      <trkpt lat="49.37302" lon="1.43495">
        <ele>83.740997</ele>
        <time>2017-10-09T09:21:06Z</time>
      </trkpt>
      <trkpt lat="49.37282" lon="1.43459">
        <ele>87.2192</ele>
        <time>2017-10-09T09:21:30Z</time>
      </trkpt>
      <trkpt lat="49.37257" lon="1.43415">
        <ele>92.938545</ele>
        <time>2017-10-09T09:21:58Z</time>
      </trkpt>
      <trkpt lat="49.37236" lon="1.43382">
        <ele>96.8041</ele>
        <time>2017-10-09T09:22:19Z</time>
      </trkpt>
      <trkpt lat="49.37226" lon="1.43368">
        <ele>98.391174</ele>
        <time>2017-10-09T09:22:32Z</time>
      </trkpt>
      <trkpt lat="49.37204" lon="1.43337">
        <ele>103.202599</ele>
        <time>2017-10-09T09:22:54Z</time>
      </trkpt>
      <trkpt lat="49.37198" lon="1.43298">
        <ele>107.212524</ele>
        <time>2017-10-09T09:23:16Z</time>
      </trkpt>
      <trkpt lat="49.37214" lon="1.43271">
        <ele>111.383812</ele>
        <time>2017-10-09T09:23:39Z</time>
      </trkpt>
      <trkpt lat="49.37237" lon="1.43227">
        <ele>115.942245</ele>
        <time>2017-10-09T09:24:07Z</time>
      </trkpt>
      <trkpt lat="49.37253" lon="1.43196">
        <ele>118.598259</ele>
        <time>2017-10-09T09:24:28Z</time>
      </trkpt>
      <trkpt lat="49.37273" lon="1.4315">
        <ele>119.959999</ele>
        <time>2017-10-09T09:24:50Z</time>
      </trkpt>
      <trkpt lat="49.37286" lon="1.43094">
        <ele>121.050781</ele>
        <time>2017-10-09T09:25:06Z</time>
      </trkpt>
      <trkpt lat="49.37284" lon="1.43038">
        <ele>121.281799</ele>
        <time>2017-10-09T09:25:21Z</time>
      </trkpt>
      <trkpt lat="49.37259" lon="1.42962">
        <ele>121.791451</ele>
        <time>2017-10-09T09:25:39Z</time>
      </trkpt>
      <trkpt lat="49.37237" lon="1.4289">
        <ele>123</ele>
        <time>2017-10-09T09:25:54Z</time>
      </trkpt>
      <trkpt lat="49.37212" lon="1.42812">
        <ele>123.58065</ele>
        <time>2017-10-09T09:26:12Z</time>
      </trkpt>
      <trkpt lat="49.3721" lon="1.42804">
        <ele>123.707497</ele>
        <time>2017-10-09T09:26:14Z</time>
      </trkpt>
      <trkpt lat="49.37219" lon="1.4279">
        <ele>123.755302</ele>
        <time>2017-10-09T09:26:18Z</time>
      </trkpt>
      <trkpt lat="49.37279" lon="1.42738">
        <ele>123</ele>
        <time>2017-10-09T09:26:36Z</time>
      </trkpt>
      <trkpt lat="49.37308" lon="1.42686">
        <ele>122.82</ele>
        <time>2017-10-09T09:26:48Z</time>
      </trkpt>
      <trkpt lat="49.37326" lon="1.42619">
        <ele>122.033752</ele>
        <time>2017-10-09T09:27:02Z</time>
      </trkpt>
      <trkpt lat="49.37343" lon="1.42531">
        <ele>120.375</ele>
        <time>2017-10-09T09:27:23Z</time>
      </trkpt>
      <trkpt lat="49.37356" lon="1.42445">
        <ele>117.644997</ele>
        <time>2017-10-09T09:27:41Z</time>
      </trkpt>
      <trkpt lat="49.37373" lon="1.42359">
        <ele>115.067497</ele>
        <time>2017-10-09T09:28:01Z</time>
      </trkpt>
      <trkpt lat="49.37385" lon="1.42281">
        <ele>112.793747</ele>
        <time>2017-10-09T09:28:16Z</time>
      </trkpt>
      <trkpt lat="49.37385" lon="1.42239">
        <ele>112.166252</ele>
        <time>2017-10-09T09:28:22Z</time>
      </trkpt>
      <trkpt lat="49.37375" lon="1.42187">
        <ele>111.614998</ele>
        <time>2017-10-09T09:28:34Z</time>
      </trkpt>
      <trkpt lat="49.37376" lon="1.42184">
        <ele>111.556252</ele>
        <time>2017-10-09T09:28:35Z</time>
      </trkpt>
      <trkpt lat="49.37396" lon="1.4216">
        <ele>110.994659</ele>
        <time>2017-10-09T09:28:44Z</time>
      </trkpt>
      <trkpt lat="49.37416" lon="1.42133">
        <ele>110.725304</ele>
        <time>2017-10-09T09:28:49Z</time>
      </trkpt>
      <trkpt lat="49.3743" lon="1.42121">
        <ele>110.432854</ele>
        <time>2017-10-09T09:28:52Z</time>
      </trkpt>
      <trkpt lat="49.37456" lon="1.42103">
        <ele>110.071487</ele>
        <time>2017-10-09T09:29:02Z</time>
      </trkpt>
      <trkpt lat="49.37483" lon="1.42067">
        <ele>110.248131</ele>
        <time>2017-10-09T09:29:14Z</time>
      </trkpt>
      <trkpt lat="49.37486" lon="1.42066">
        <ele>110.312225</ele>
        <time>2017-10-09T09:29:15Z</time>
      </trkpt>
      <trkpt lat="49.37525" lon="1.42053">
        <ele>111.712997</ele>
        <time>2017-10-09T09:29:29Z</time>
      </trkpt>
      <trkpt lat="49.37553" lon="1.42038">
        <ele>112.662498</ele>
        <time>2017-10-09T09:29:45Z</time>
      </trkpt>
      <trkpt lat="49.37587" lon="1.42026">
        <ele>113.940186</ele>
        <time>2017-10-09T09:30:00Z</time>
      </trkpt>
      <trkpt lat="49.37617" lon="1.42019">
        <ele>115</ele>
        <time>2017-10-09T09:30:14Z</time>
      </trkpt>
      <trkpt lat="49.37656" lon="1.42024">
        <ele>115.035004</ele>
        <time>2017-10-09T09:30:27Z</time>
      </trkpt>
      <trkpt lat="49.37672" lon="1.42023">
        <ele>115.385002</ele>
        <time>2017-10-09T09:30:36Z</time>
      </trkpt>
      <trkpt lat="49.37691" lon="1.42047">
        <ele>115.815002</ele>
        <time>2017-10-09T09:30:44Z</time>
      </trkpt>
      <trkpt lat="49.37709" lon="1.42022">
        <ele>116</ele>
        <time>2017-10-09T09:30:54Z</time>
      </trkpt>
      <trkpt lat="49.37739" lon="1.41987">
        <ele>115.556252</ele>
        <time>2017-10-09T09:31:09Z</time>
      </trkpt>
      <trkpt lat="49.37751" lon="1.41935">
        <ele>114.801247</ele>
        <time>2017-10-09T09:31:21Z</time>
      </trkpt>
      <trkpt lat="49.3777" lon="1.41892">
        <ele>114.18</ele>
        <time>2017-10-09T09:31:31Z</time>
      </trkpt>
      <trkpt lat="49.37775" lon="1.41875">
        <ele>113.9375</ele>
        <time>2017-10-09T09:31:34Z</time>
      </trkpt>
      <trkpt lat="49.37776" lon="1.4185">
        <ele>113.577499</ele>
        <time>2017-10-09T09:31:38Z</time>
      </trkpt>
      <trkpt lat="49.37782" lon="1.41814">
        <ele>113.051247</ele>
        <time>2017-10-09T09:31:43Z</time>
      </trkpt>
      <trkpt lat="49.37812" lon="1.41754">
        <ele>112.184998</ele>
        <time>2017-10-09T09:31:55Z</time>
      </trkpt>
      <trkpt lat="49.37827" lon="1.41713">
        <ele>111.597504</ele>
        <time>2017-10-09T09:32:05Z</time>
      </trkpt>
      <trkpt lat="49.37855" lon="1.41695">
        <ele>111.679901</ele>
        <time>2017-10-09T09:32:15Z</time>
      </trkpt>
      <trkpt lat="49.37867" lon="1.4169">
        <ele>111.846176</ele>
        <time>2017-10-09T09:32:25Z</time>
      </trkpt>
      <trkpt lat="49.37867" lon="1.41694">
        <ele>111.855141</ele>
        <time>2017-10-09T09:32:29Z</time>
      </trkpt>
      <trkpt lat="49.37882" lon="1.41755">
        <ele>112.334999</ele>
        <time>2017-10-09T09:32:40Z</time>
      </trkpt>
      <trkpt lat="49.37899" lon="1.41822">
        <ele>113.480003</ele>
        <time>2017-10-09T09:32:55Z</time>
      </trkpt>
      <trkpt lat="49.37911" lon="1.41862">
        <ele>113.75</ele>
        <time>2017-10-09T09:33:08Z</time>
      </trkpt>
      <trkpt lat="49.37922" lon="1.41854">
        <ele>113.974998</ele>
        <time>2017-10-09T09:33:12Z</time>
      </trkpt>
      <trkpt lat="49.37943" lon="1.41819">
        <ele>114.470001</ele>
        <time>2017-10-09T09:33:27Z</time>
      </trkpt>
      <trkpt lat="49.37968" lon="1.41792">
        <ele>114.8125</ele>
        <time>2017-10-09T09:33:40Z</time>
      </trkpt>
      <trkpt lat="49.37996" lon="1.41765">
        <ele>115.03875</ele>
        <time>2017-10-09T09:33:55Z</time>
      </trkpt>
      <trkpt lat="49.38024" lon="1.41727">
        <ele>115.525467</ele>
        <time>2017-10-09T09:34:11Z</time>
      </trkpt>
      <trkpt lat="49.38052" lon="1.41682">
        <ele>116.093918</ele>
        <time>2017-10-09T09:34:29Z</time>
      </trkpt>
      <trkpt lat="49.38076" lon="1.41639">
        <ele>116.721176</ele>
        <time>2017-10-09T09:34:41Z</time>
      </trkpt>
      <trkpt lat="49.381" lon="1.41609">
        <ele>117.140976</ele>
        <time>2017-10-09T09:34:55Z</time>
      </trkpt>
      <trkpt lat="49.38124" lon="1.41586">
        <ele>117.975708</ele>
        <time>2017-10-09T09:35:07Z</time>
      </trkpt>
      <trkpt lat="49.38151" lon="1.41568">
        <ele>118.817497</ele>
        <time>2017-10-09T09:35:20Z</time>
      </trkpt>
      <trkpt lat="49.38163" lon="1.41562">
        <ele>119.302498</ele>
        <time>2017-10-09T09:35:33Z</time>
      </trkpt>
      <trkpt lat="49.38178" lon="1.41551">
        <ele>119.817497</ele>
        <time>2017-10-09T09:36:11Z</time>
      </trkpt>
      <trkpt lat="49.38222" lon="1.41526">
        <ele>121.44175</ele>
        <time>2017-10-09T09:36:25Z</time>
      </trkpt>
      <trkpt lat="49.38253" lon="1.41531">
        <ele>122.800003</ele>
        <time>2017-10-09T09:36:39Z</time>
      </trkpt>
      <trkpt lat="49.38271" lon="1.41507">
        <ele>123.34375</ele>
        <time>2017-10-09T09:36:50Z</time>
      </trkpt>
      <trkpt lat="49.3828" lon="1.41475">
        <ele>123.291313</ele>
        <time>2017-10-09T09:37:04Z</time>
      </trkpt>
      <trkpt lat="49.383" lon="1.4146">
        <ele>123.973625</ele>
        <time>2017-10-09T09:37:18Z</time>
      </trkpt>
      <trkpt lat="49.38304" lon="1.41462">
        <ele>124.132622</ele>
        <time>2017-10-09T09:37:21Z</time>
      </trkpt>
      <trkpt lat="49.38333" lon="1.41461">
        <ele>125.209999</ele>
        <time>2017-10-09T09:37:37Z</time>
      </trkpt>
      <trkpt lat="49.38367" lon="1.41471">
        <ele>125.949997</ele>
        <time>2017-10-09T09:37:51Z</time>
      </trkpt>
      <trkpt lat="49.38369" lon="1.41471">
        <ele>125.995003</ele>
        <time>2017-10-09T09:37:52Z</time>
      </trkpt>
      <trkpt lat="49.38402" lon="1.4147">
        <ele>126.745003</ele>
        <time>2017-10-09T09:38:07Z</time>
      </trkpt>
      <trkpt lat="49.38438" lon="1.41482">
        <ele>127</ele>
        <time>2017-10-09T09:38:20Z</time>
      </trkpt>
      <trkpt lat="49.38441" lon="1.41483">
        <ele>127</ele>
        <time>2017-10-09T09:38:21Z</time>
      </trkpt>
      <trkpt lat="49.38478" lon="1.41488">
        <ele>127</ele>
        <time>2017-10-09T09:38:35Z</time>
      </trkpt>
      <trkpt lat="49.38507" lon="1.41499">
        <ele>126.950127</ele>
        <time>2017-10-09T09:38:47Z</time>
      </trkpt>
      <trkpt lat="49.38517" lon="1.41501">
        <ele>126.798813</ele>
        <time>2017-10-09T09:38:51Z</time>
      </trkpt>
      <trkpt lat="49.38558" lon="1.41497">
        <ele>126.277489</ele>
        <time>2017-10-09T09:39:05Z</time>
      </trkpt>
      <trkpt lat="49.38585" lon="1.41514">
        <ele>126.020233</ele>
        <time>2017-10-09T09:39:15Z</time>
      </trkpt>
      <trkpt lat="49.38605" lon="1.41521">
        <ele>125.487503</ele>
        <time>2017-10-09T09:39:19Z</time>
      </trkpt>
      <trkpt lat="49.3865" lon="1.4157">
        <ele>122.857903</ele>
        <time>2017-10-09T09:39:31Z</time>
      </trkpt>
      <trkpt lat="49.3868" lon="1.41583">
        <ele>121.328026</ele>
        <time>2017-10-09T09:39:44Z</time>
      </trkpt>
      <trkpt lat="49.38718" lon="1.41597">
        <ele>120.012878</ele>
        <time>2017-10-09T09:39:59Z</time>
      </trkpt>
      <trkpt lat="49.3874" lon="1.41609">
        <ele>118.982452</ele>
        <time>2017-10-09T09:40:08Z</time>
      </trkpt>
      <trkpt lat="49.38753" lon="1.41597">
        <ele>118.734283</ele>
        <time>2017-10-09T09:40:14Z</time>
      </trkpt>
      <trkpt lat="49.38778" lon="1.41555">
        <ele>118.361252</ele>
        <time>2017-10-09T09:40:31Z</time>
      </trkpt>
      <trkpt lat="49.38796" lon="1.41512">
        <ele>118.563751</ele>
        <time>2017-10-09T09:40:47Z</time>
      </trkpt>
      <trkpt lat="49.38811" lon="1.41472">
        <ele>118.809998</ele>
        <time>2017-10-09T09:40:59Z</time>
      </trkpt>
      <trkpt lat="49.38833" lon="1.41426">
        <ele>118.330002</ele>
        <time>2017-10-09T09:41:14Z</time>
      </trkpt>
      <trkpt lat="49.3885" lon="1.41379">
        <ele>117.57</ele>
        <time>2017-10-09T09:41:28Z</time>
      </trkpt>
      <trkpt lat="49.38871" lon="1.41338">
        <ele>116.462303</ele>
        <time>2017-10-09T09:41:39Z</time>
      </trkpt>
      <trkpt lat="49.38883" lon="1.41281">
        <ele>116.441246</ele>
        <time>2017-10-09T09:41:52Z</time>
      </trkpt>
      <trkpt lat="49.38883" lon="1.41255">
        <ele>116.828751</ele>
        <time>2017-10-09T09:41:57Z</time>
      </trkpt>
      <trkpt lat="49.38879" lon="1.41222">
        <ele>117.209999</ele>
        <time>2017-10-09T09:42:08Z</time>
      </trkpt>
      <trkpt lat="49.38878" lon="1.41205">
        <ele>117.260002</ele>
        <time>2017-10-09T09:42:21Z</time>
      </trkpt>
      <trkpt lat="49.38856" lon="1.4114">
        <ele>117.7425</ele>
        <time>2017-10-09T09:42:36Z</time>
      </trkpt>
      <trkpt lat="49.38845" lon="1.41088">
        <ele>117.214996</ele>
        <time>2017-10-09T09:42:49Z</time>
      </trkpt>
      <trkpt lat="49.38835" lon="1.41038">
        <ele>116.18</ele>
        <time>2017-10-09T09:43:03Z</time>
      </trkpt>
      <trkpt lat="49.38829" lon="1.40999">
        <ele>115.853752</ele>
        <time>2017-10-09T09:43:15Z</time>
      </trkpt>
      <trkpt lat="49.38813" lon="1.40946">
        <ele>116.044998</ele>
        <time>2017-10-09T09:43:30Z</time>
      </trkpt>
      <trkpt lat="49.38802" lon="1.40895">
        <ele>116.740623</ele>
        <time>2017-10-09T09:43:43Z</time>
      </trkpt>
      <trkpt lat="49.3879" lon="1.40839">
        <ele>117.126122</ele>
        <time>2017-10-09T09:43:55Z</time>
      </trkpt>
      <trkpt lat="49.38781" lon="1.40781">
        <ele>116.931496</ele>
        <time>2017-10-09T09:44:09Z</time>
      </trkpt>
      <trkpt lat="49.38768" lon="1.40719">
        <ele>116.364578</ele>
        <time>2017-10-09T09:44:23Z</time>
      </trkpt>
      <trkpt lat="49.38754" lon="1.40656">
        <ele>116.043747</ele>
        <time>2017-10-09T09:44:34Z</time>
      </trkpt>
      <trkpt lat="49.38737" lon="1.40585">
        <ele>115.205002</ele>
        <time>2017-10-09T09:44:48Z</time>
      </trkpt>
      <trkpt lat="49.38716" lon="1.40527">
        <ele>114.821251</ele>
        <time>2017-10-09T09:45:05Z</time>
      </trkpt>
      <trkpt lat="49.38692" lon="1.40465">
        <ele>114.819885</ele>
        <time>2017-10-09T09:45:18Z</time>
      </trkpt>
      <trkpt lat="49.38673" lon="1.40413">
        <ele>115.003754</ele>
        <time>2017-10-09T09:45:31Z</time>
      </trkpt>
      <trkpt lat="49.38658" lon="1.4038">
        <ele>115.234825</ele>
        <time>2017-10-09T09:45:42Z</time>
      </trkpt>
      <trkpt lat="49.38643" lon="1.4034">
        <ele>115.447685</ele>
        <time>2017-10-09T09:45:55Z</time>
      </trkpt>
      <trkpt lat="49.38624" lon="1.40298">
        <ele>115.792686</ele>
        <time>2017-10-09T09:46:09Z</time>
      </trkpt>
      <trkpt lat="49.38609" lon="1.40261">
        <ele>115.548149</ele>
        <time>2017-10-09T09:46:21Z</time>
      </trkpt>
      <trkpt lat="49.38595" lon="1.40209">
        <ele>115.165573</ele>
        <time>2017-10-09T09:46:31Z</time>
      </trkpt>
      <trkpt lat="49.38578" lon="1.40159">
        <ele>114.408096</ele>
        <time>2017-10-09T09:46:44Z</time>
      </trkpt>
      <trkpt lat="49.38556" lon="1.401">
        <ele>113.583549</ele>
        <time>2017-10-09T09:46:57Z</time>
      </trkpt>
      <trkpt lat="49.38519" lon="1.40062">
        <ele>115.037079</ele>
        <time>2017-10-09T09:47:11Z</time>
      </trkpt>
      <trkpt lat="49.38483" lon="1.40033">
        <ele>115.282501</ele>
        <time>2017-10-09T09:47:25Z</time>
      </trkpt>
      <trkpt lat="49.38439" lon="1.39989">
        <ele>114.459259</ele>
        <time>2017-10-09T09:47:39Z</time>
      </trkpt>
      <trkpt lat="49.3839" lon="1.39941">
        <ele>113.977684</ele>
        <time>2017-10-09T09:47:51Z</time>
      </trkpt>
      <trkpt lat="49.38342" lon="1.39889">
        <ele>112.362137</ele>
        <time>2017-10-09T09:48:03Z</time>
      </trkpt>
      <trkpt lat="49.38299" lon="1.39847">
        <ele>111.029846</ele>
        <time>2017-10-09T09:48:15Z</time>
      </trkpt>
      <trkpt lat="49.38259" lon="1.39806">
        <ele>109.985001</ele>
        <time>2017-10-09T09:48:26Z</time>
      </trkpt>
      <trkpt lat="49.38217" lon="1.39765">
        <ele>109.385002</ele>
        <time>2017-10-09T09:48:36Z</time>
      </trkpt>
      <trkpt lat="49.38209" lon="1.39757">
        <ele>109.267502</ele>
        <time>2017-10-09T09:48:38Z</time>
      </trkpt>
      <trkpt lat="49.38171" lon="1.39715">
        <ele>108.297501</ele>
        <time>2017-10-09T09:48:46Z</time>
      </trkpt>
      <trkpt lat="49.38147" lon="1.39696">
        <ele>107.712502</ele>
        <time>2017-10-09T09:48:51Z</time>
      </trkpt>
      <trkpt lat="49.38109" lon="1.39658">
        <ele>105.4925</ele>
        <time>2017-10-09T09:49:02Z</time>
      </trkpt>
      <trkpt lat="49.38101" lon="1.39653">
        <ele>104.860001</ele>
        <time>2017-10-09T09:49:11Z</time>
      </trkpt>
      <trkpt lat="49.38087" lon="1.39641">
        <ele>103.455002</ele>
        <time>2017-10-09T09:49:37Z</time>
      </trkpt>
      <trkpt lat="49.38058" lon="1.39612">
        <ele>100.781067</ele>
        <time>2017-10-09T09:49:48Z</time>
      </trkpt>
      <trkpt lat="49.38025" lon="1.39575">
        <ele>95.396873</ele>
        <time>2017-10-09T09:49:57Z</time>
      </trkpt>
      <trkpt lat="49.37981" lon="1.39529">
        <ele>91.950073</ele>
        <time>2017-10-09T09:50:09Z</time>
      </trkpt>
      <trkpt lat="49.37939" lon="1.39472">
        <ele>86.058685</ele>
        <time>2017-10-09T09:50:22Z</time>
      </trkpt>
      <trkpt lat="49.37899" lon="1.39431">
        <ele>81.803391</ele>
        <time>2017-10-09T09:50:30Z</time>
      </trkpt>
      <trkpt lat="49.37886" lon="1.39415">
        <ele>78.595497</ele>
        <time>2017-10-09T09:50:33Z</time>
      </trkpt>
      <trkpt lat="49.37857" lon="1.39382">
        <ele>70.771202</ele>
        <time>2017-10-09T09:50:43Z</time>
      </trkpt>
      <trkpt lat="49.37817" lon="1.39356">
        <ele>65.839401</ele>
        <time>2017-10-09T09:50:56Z</time>
      </trkpt>
      <trkpt lat="49.37795" lon="1.39326">
        <ele>59.99575</ele>
        <time>2017-10-09T09:51:07Z</time>
      </trkpt>
      <trkpt lat="49.3776" lon="1.39297">
        <ele>55.806252</ele>
        <time>2017-10-09T09:51:21Z</time>
      </trkpt>
      <trkpt lat="49.37742" lon="1.39271">
        <ele>50.125</ele>
        <time>2017-10-09T09:51:31Z</time>
      </trkpt>
      <trkpt lat="49.37732" lon="1.39267">
        <ele>49.299999</ele>
        <time>2017-10-09T09:53:33Z</time>
      </trkpt>
      <trkpt lat="49.37679" lon="1.39284">
        <ele>51.759998</ele>
        <time>2017-10-09T09:53:51Z</time>
      </trkpt>
      <trkpt lat="49.37575" lon="1.39318">
        <ele>50.277149</ele>
        <time>2017-10-09T09:54:16Z</time>
      </trkpt>
      <trkpt lat="49.37513" lon="1.39355">
        <ele>48.351051</ele>
        <time>2017-10-09T09:54:32Z</time>
      </trkpt>
      <trkpt lat="49.37495" lon="1.39356">
        <ele>46.75</ele>
        <time>2017-10-09T09:54:37Z</time>
      </trkpt>
      <trkpt lat="49.37487" lon="1.39329">
        <ele>45.241001</ele>
        <time>2017-10-09T09:54:42Z</time>
      </trkpt>
      <trkpt lat="49.37499" lon="1.39158">
        <ele>46.279507</ele>
        <time>2017-10-09T09:55:05Z</time>
      </trkpt>
      <trkpt lat="49.37503" lon="1.39059">
        <ele>48.404999</ele>
        <time>2017-10-09T09:55:25Z</time>
      </trkpt>
      <trkpt lat="49.37502" lon="1.38931">
        <ele>48.404999</ele>
        <time>2017-10-09T09:55:49Z</time>
      </trkpt>
      <trkpt lat="49.37499" lon="1.38805">
        <ele>48.223625</ele>
        <time>2017-10-09T09:56:10Z</time>
      </trkpt>
      <trkpt lat="49.37515" lon="1.38725">
        <ele>49.355476</ele>
        <time>2017-10-09T09:56:27Z</time>
      </trkpt>
      <trkpt lat="49.37558" lon="1.38661">
        <ele>50.981575</ele>
        <time>2017-10-09T09:56:45Z</time>
      </trkpt>
      <trkpt lat="49.37614" lon="1.38588">
        <ele>53.380001</ele>
        <time>2017-10-09T09:57:08Z</time>
      </trkpt>
      <trkpt lat="49.37653" lon="1.38553">
        <ele>54.756157</ele>
        <time>2017-10-09T09:57:25Z</time>
      </trkpt>
      <trkpt lat="49.3768" lon="1.38528">
        <ele>55.460251</ele>
        <time>2017-10-09T09:57:39Z</time>
      </trkpt>
      <trkpt lat="49.37713" lon="1.38512">
        <ele>57.718376</ele>
        <time>2017-10-09T09:57:54Z</time>
      </trkpt>
      <trkpt lat="49.37737" lon="1.38505">
        <ele>59.834488</ele>
        <time>2017-10-09T09:58:10Z</time>
      </trkpt>
      <trkpt lat="49.37769" lon="1.385">
        <ele>62.5588</ele>
        <time>2017-10-09T09:58:31Z</time>
      </trkpt>
      <trkpt lat="49.37806" lon="1.38491">
        <ele>64.218788</ele>
        <time>2017-10-09T09:58:50Z</time>
      </trkpt>
      <trkpt lat="49.3783" lon="1.38489">
        <ele>65.875198</ele>
        <time>2017-10-09T09:59:04Z</time>
      </trkpt>
      <trkpt lat="49.37862" lon="1.38493">
        <ele>68.437782</ele>
        <time>2017-10-09T09:59:21Z</time>
      </trkpt>
      <trkpt lat="49.37893" lon="1.38505">
        <ele>71.600441</ele>
        <time>2017-10-09T09:59:41Z</time>
      </trkpt>
      <trkpt lat="49.37928" lon="1.38514">
        <ele>72.638878</ele>
        <time>2017-10-09T09:59:56Z</time>
      </trkpt>
      <trkpt lat="49.37971" lon="1.38527">
        <ele>74.176239</ele>
        <time>2017-10-09T10:00:15Z</time>
      </trkpt>
      <trkpt lat="49.38004" lon="1.38543">
        <ele>75.72094</ele>
        <time>2017-10-09T10:00:34Z</time>
      </trkpt>
      <trkpt lat="49.38036" lon="1.38564">
        <ele>77.112495</ele>
        <time>2017-10-09T10:00:51Z</time>
      </trkpt>
      <trkpt lat="49.38071" lon="1.38586">
        <ele>77.298126</ele>
        <time>2017-10-09T10:01:07Z</time>
      </trkpt>
      <trkpt lat="49.38109" lon="1.38594">
        <ele>76.530876</ele>
        <time>2017-10-09T10:01:23Z</time>
      </trkpt>
      <trkpt lat="49.38149" lon="1.38597">
        <ele>75.779999</ele>
        <time>2017-10-09T10:01:36Z</time>
      </trkpt>
      <trkpt lat="49.38185" lon="1.386">
        <ele>75.449997</ele>
        <time>2017-10-09T10:01:49Z</time>
      </trkpt>
      <trkpt lat="49.38229" lon="1.3861">
        <ele>76.366249</ele>
        <time>2017-10-09T10:02:04Z</time>
      </trkpt>
      <trkpt lat="49.38266" lon="1.38631">
        <ele>79.195435</ele>
        <time>2017-10-09T10:02:22Z</time>
      </trkpt>
      <trkpt lat="49.38295" lon="1.38624">
        <ele>80.813072</ele>
        <time>2017-10-09T10:02:37Z</time>
      </trkpt>
      <trkpt lat="49.38328" lon="1.38619">
        <ele>83.626122</ele>
        <time>2017-10-09T10:02:52Z</time>
      </trkpt>
      <trkpt lat="49.38351" lon="1.38617">
        <ele>85.805</ele>
        <time>2017-10-09T10:03:05Z</time>
      </trkpt>
      <trkpt lat="49.38368" lon="1.3862">
        <ele>87.607498</ele>
        <time>2017-10-09T10:03:16Z</time>
      </trkpt>
      <trkpt lat="49.38395" lon="1.38621">
        <ele>90.287498</ele>
        <time>2017-10-09T10:03:34Z</time>
      </trkpt>
      <trkpt lat="49.38426" lon="1.3862">
        <ele>94.427498</ele>
        <time>2017-10-09T10:03:56Z</time>
      </trkpt>
      <trkpt lat="49.38459" lon="1.38623">
        <ele>99.675003</ele>
        <time>2017-10-09T10:04:19Z</time>
      </trkpt>
      <trkpt lat="49.38488" lon="1.38617">
        <ele>103.460129</ele>
        <time>2017-10-09T10:04:34Z</time>
      </trkpt>
      <trkpt lat="49.38515" lon="1.38613">
        <ele>105.41156</ele>
        <time>2017-10-09T10:04:48Z</time>
      </trkpt>
      <trkpt lat="49.38541" lon="1.38618">
        <ele>107.052162</ele>
        <time>2017-10-09T10:04:59Z</time>
      </trkpt>
      <trkpt lat="49.38567" lon="1.38625">
        <ele>108.240395</ele>
        <time>2017-10-09T10:05:16Z</time>
      </trkpt>
      <trkpt lat="49.386" lon="1.38641">
        <ele>109.472504</ele>
        <time>2017-10-09T10:05:36Z</time>
      </trkpt>
      <trkpt lat="49.38623" lon="1.38656">
        <ele>110.024948</ele>
        <time>2017-10-09T10:05:50Z</time>
      </trkpt>
      <trkpt lat="49.38645" lon="1.38674">
        <ele>110.686859</ele>
        <time>2017-10-09T10:06:03Z</time>
      </trkpt>
      <trkpt lat="49.38673" lon="1.38693">
        <ele>111.708496</ele>
        <time>2017-10-09T10:06:18Z</time>
      </trkpt>
      <trkpt lat="49.38699" lon="1.3871">
        <ele>112.362503</ele>
        <time>2017-10-09T10:06:30Z</time>
      </trkpt>
      <trkpt lat="49.38718" lon="1.38727">
        <ele>112.709015</ele>
        <time>2017-10-09T10:06:42Z</time>
      </trkpt>
      <trkpt lat="49.38743" lon="1.38749">
        <ele>113.308235</ele>
        <time>2017-10-09T10:06:56Z</time>
      </trkpt>
      <trkpt lat="49.38772" lon="1.3877">
        <ele>113.678009</ele>
        <time>2017-10-09T10:07:10Z</time>
      </trkpt>
      <trkpt lat="49.38804" lon="1.38813">
        <ele>114.2575</ele>
        <time>2017-10-09T10:07:28Z</time>
      </trkpt>
      <trkpt lat="49.38829" lon="1.38851">
        <ele>115.018585</ele>
        <time>2017-10-09T10:07:46Z</time>
      </trkpt>
      <trkpt lat="49.38831" lon="1.38862">
        <ele>115.40686</ele>
        <time>2017-10-09T10:08:00Z</time>
      </trkpt>
      <trkpt lat="49.3883" lon="1.38857">
        <ele>115.234985</ele>
        <time>2017-10-09T10:08:29Z</time>
      </trkpt>
      <trkpt lat="49.38834" lon="1.38819">
        <ele>113.772499</ele>
        <time>2017-10-09T10:08:39Z</time>
      </trkpt>
      <trkpt lat="49.3884" lon="1.38779">
        <ele>112.472504</ele>
        <time>2017-10-09T10:08:49Z</time>
      </trkpt>
      <trkpt lat="49.38872" lon="1.38735">
        <ele>110.493759</ele>
        <time>2017-10-09T10:09:00Z</time>
      </trkpt>
      <trkpt lat="49.38918" lon="1.38705">
        <ele>108.639999</ele>
        <time>2017-10-09T10:09:10Z</time>
      </trkpt>
      <trkpt lat="49.38968" lon="1.38678">
        <ele>106.10585</ele>
        <time>2017-10-09T10:09:21Z</time>
      </trkpt>
      <trkpt lat="49.3903" lon="1.38645">
        <ele>100.663795</ele>
        <time>2017-10-09T10:09:33Z</time>
      </trkpt>
      <trkpt lat="49.39078" lon="1.38623">
        <ele>95.540001</ele>
        <time>2017-10-09T10:09:39Z</time>
      </trkpt>
      <trkpt lat="49.39091" lon="1.38618">
        <ele>94.407501</ele>
        <time>2017-10-09T10:09:41Z</time>
      </trkpt>
      <trkpt lat="49.39131" lon="1.38621">
        <ele>93.51886</ele>
        <time>2017-10-09T10:09:51Z</time>
      </trkpt>
      <trkpt lat="49.39176" lon="1.38618">
        <ele>92.612602</ele>
        <time>2017-10-09T10:10:05Z</time>
      </trkpt>
      <trkpt lat="49.3921" lon="1.38618">
        <ele>92.540375</ele>
        <time>2017-10-09T10:10:14Z</time>
      </trkpt>
      <trkpt lat="49.39259" lon="1.38613">
        <ele>90.739998</ele>
        <time>2017-10-09T10:10:28Z</time>
      </trkpt>
      <trkpt lat="49.39309" lon="1.38598">
        <ele>87.145004</ele>
        <time>2017-10-09T10:10:40Z</time>
      </trkpt>
      <trkpt lat="49.39324" lon="1.38593">
        <ele>85.985001</ele>
        <time>2017-10-09T10:10:43Z</time>
      </trkpt>
      <trkpt lat="49.39337" lon="1.38586">
        <ele>84.434998</ele>
        <time>2017-10-09T10:10:46Z</time>
      </trkpt>
      <trkpt lat="49.39398" lon="1.38553">
        <ele>74.464302</ele>
        <time>2017-10-09T10:10:59Z</time>
      </trkpt>
      <trkpt lat="49.39421" lon="1.38527">
        <ele>69.383728</ele>
        <time>2017-10-09T10:11:09Z</time>
      </trkpt>
      <trkpt lat="49.39424" lon="1.38458">
        <ele>66.160004</ele>
        <time>2017-10-09T10:11:19Z</time>
      </trkpt>
      <trkpt lat="49.39427" lon="1.38415">
        <ele>64.50618</ele>
        <time>2017-10-09T10:11:24Z</time>
      </trkpt>
      <trkpt lat="49.3944" lon="1.38394">
        <ele>63.915001</ele>
        <time>2017-10-09T10:11:30Z</time>
      </trkpt>
      <trkpt lat="49.39468" lon="1.38399">
        <ele>65.444305</ele>
        <time>2017-10-09T10:11:44Z</time>
      </trkpt>
      <trkpt lat="49.39503" lon="1.38393">
        <ele>64.973373</ele>
        <time>2017-10-09T10:11:57Z</time>
      </trkpt>
      <trkpt lat="49.39517" lon="1.38388">
        <ele>64.601624</ele>
        <time>2017-10-09T10:12:08Z</time>
      </trkpt>
      <trkpt lat="49.39521" lon="1.38388">
        <ele>64.527336</ele>
        <time>2017-10-09T10:13:00Z</time>
      </trkpt>
      <trkpt lat="49.39547" lon="1.38384">
        <ele>64.111961</ele>
        <time>2017-10-09T10:13:46Z</time>
      </trkpt>
      <trkpt lat="49.39554" lon="1.38386">
        <ele>64.229904</ele>
        <time>2017-10-09T10:13:50Z</time>
      </trkpt>
      <trkpt lat="49.39597" lon="1.38381">
        <ele>64.180626</ele>
        <time>2017-10-09T10:14:04Z</time>
      </trkpt>
      <trkpt lat="49.39648" lon="1.38373">
        <ele>65.217987</ele>
        <time>2017-10-09T10:14:16Z</time>
      </trkpt>
      <trkpt lat="49.39711" lon="1.38356">
        <ele>65.621254</ele>
        <time>2017-10-09T10:14:32Z</time>
      </trkpt>
      <trkpt lat="49.39751" lon="1.38347">
        <ele>65.599998</ele>
        <time>2017-10-09T10:14:45Z</time>
      </trkpt>
      <trkpt lat="49.39785" lon="1.38351">
        <ele>66.832504</ele>
        <time>2017-10-09T10:14:58Z</time>
      </trkpt>
      <trkpt lat="49.39791" lon="1.38352">
        <ele>67.151253</ele>
        <time>2017-10-09T10:15:01Z</time>
      </trkpt>
      <trkpt lat="49.39834" lon="1.38352">
        <ele>68.198753</ele>
        <time>2017-10-09T10:15:17Z</time>
      </trkpt>
      <trkpt lat="49.39862" lon="1.38356">
        <ele>69.208748</ele>
        <time>2017-10-09T10:15:26Z</time>
      </trkpt>
      <trkpt lat="49.39902" lon="1.38348">
        <ele>69.705475</ele>
        <time>2017-10-09T10:15:39Z</time>
      </trkpt>
      <trkpt lat="49.39947" lon="1.38337">
        <ele>68.779999</ele>
        <time>2017-10-09T10:15:49Z</time>
      </trkpt>
      <trkpt lat="49.39952" lon="1.38335">
        <ele>68.546249</ele>
        <time>2017-10-09T10:15:50Z</time>
      </trkpt>
      <trkpt lat="49.39977" lon="1.38321">
        <ele>65.755188</ele>
        <time>2017-10-09T10:16:00Z</time>
      </trkpt>
      <trkpt lat="49.39991" lon="1.38289">
        <ele>62.6105</ele>
        <time>2017-10-09T10:16:10Z</time>
      </trkpt>
      <trkpt lat="49.39989" lon="1.38274">
        <ele>61.544876</ele>
        <time>2017-10-09T10:16:13Z</time>
      </trkpt>
      <trkpt lat="49.39977" lon="1.38227">
        <ele>57.720001</ele>
        <time>2017-10-09T10:16:21Z</time>
      </trkpt>
      <trkpt lat="49.3997" lon="1.38176">
        <ele>53.432514</ele>
        <time>2017-10-09T10:16:32Z</time>
      </trkpt>
      <trkpt lat="49.39966" lon="1.38168">
        <ele>52.575264</ele>
        <time>2017-10-09T10:16:34Z</time>
      </trkpt>
      <trkpt lat="49.39954" lon="1.3817">
        <ele>52.339161</ele>
        <time>2017-10-09T10:16:42Z</time>
      </trkpt>
      <trkpt lat="49.4" lon="1.38154">
        <ele>53.437862</ele>
        <time>2017-10-09T10:16:56Z</time>
      </trkpt>
      <trkpt lat="49.40078" lon="1.3813">
        <ele>54.620125</ele>
        <time>2017-10-09T10:17:14Z</time>
      </trkpt>
      <trkpt lat="49.4012" lon="1.3812">
        <ele>55.066086</ele>
        <time>2017-10-09T10:17:23Z</time>
      </trkpt>
      <trkpt lat="49.40231" lon="1.38099">
        <ele>55.059902</ele>
        <time>2017-10-09T10:17:45Z</time>
      </trkpt>
      <trkpt lat="49.40308" lon="1.38084">
        <ele>54.900002</ele>
        <time>2017-10-09T10:18:00Z</time>
      </trkpt>
      <trkpt lat="49.40359" lon="1.38064">
        <ele>55.013695</ele>
        <time>2017-10-09T10:18:14Z</time>
      </trkpt>
      <trkpt lat="49.40434" lon="1.38019">
        <ele>53.983799</ele>
        <time>2017-10-09T10:18:31Z</time>
      </trkpt>
      <trkpt lat="49.40547" lon="1.3796">
        <ele>49.271248</ele>
        <time>2017-10-09T10:18:53Z</time>
      </trkpt>
      <trkpt lat="49.40596" lon="1.37969">
        <ele>48.9394</ele>
        <time>2017-10-09T10:19:01Z</time>
      </trkpt>
      <trkpt lat="49.40654" lon="1.37951">
        <ele>49.517982</ele>
        <time>2017-10-09T10:19:13Z</time>
      </trkpt>
      <trkpt lat="49.40662" lon="1.37948">
        <ele>49.659874</ele>
        <time>2017-10-09T10:19:15Z</time>
      </trkpt>
      <trkpt lat="49.40731" lon="1.37967">
        <ele>52.7505</ele>
        <time>2017-10-09T10:19:30Z</time>
      </trkpt>
      <trkpt lat="49.4074" lon="1.37969">
        <ele>53.211143</ele>
        <time>2017-10-09T10:19:32Z</time>
      </trkpt>
      <trkpt lat="49.40805" lon="1.37962">
        <ele>52.427376</ele>
        <time>2017-10-09T10:19:49Z</time>
      </trkpt>
      <trkpt lat="49.4087" lon="1.37973">
        <ele>51.989605</ele>
        <time>2017-10-09T10:20:09Z</time>
      </trkpt>
      <trkpt lat="49.4088" lon="1.37973">
        <ele>51.841263</ele>
        <time>2017-10-09T10:20:14Z</time>
      </trkpt>
      <trkpt lat="49.40843" lon="1.37962">
        <ele>51.756924</ele>
        <time>2017-10-09T10:20:28Z</time>
      </trkpt>
      <trkpt lat="49.40756" lon="1.37965">
        <ele>53.185402</ele>
        <time>2017-10-09T10:20:49Z</time>
      </trkpt>
      <trkpt lat="49.40695" lon="1.37952">
        <ele>50.840374</ele>
        <time>2017-10-09T10:21:04Z</time>
      </trkpt>
      <trkpt lat="49.40642" lon="1.3793">
        <ele>47.7677</ele>
        <time>2017-10-09T10:21:19Z</time>
      </trkpt>
      <trkpt lat="49.40637" lon="1.37896">
        <ele>45.9744</ele>
        <time>2017-10-09T10:21:27Z</time>
      </trkpt>
      <trkpt lat="49.4065" lon="1.37859">
        <ele>45.488239</ele>
        <time>2017-10-09T10:21:33Z</time>
      </trkpt>
      <trkpt lat="49.40668" lon="1.3771">
        <ele>43.345001</ele>
        <time>2017-10-09T10:21:53Z</time>
      </trkpt>
      <trkpt lat="49.40673" lon="1.37537">
        <ele>41.985001</ele>
        <time>2017-10-09T10:22:21Z</time>
      </trkpt>
      <trkpt lat="49.40674" lon="1.37425">
        <ele>42</ele>
        <time>2017-10-09T10:22:43Z</time>
      </trkpt>
      <trkpt lat="49.40674" lon="1.37389">
        <ele>42</ele>
        <time>2017-10-09T10:23:28Z</time>
      </trkpt>
      <trkpt lat="49.40674" lon="1.37279">
        <ele>43</ele>
        <time>2017-10-09T10:23:45Z</time>
      </trkpt>
      <trkpt lat="49.40669" lon="1.3717">
        <ele>43.668751</ele>
        <time>2017-10-09T10:24:02Z</time>
      </trkpt>
      <trkpt lat="49.40678" lon="1.3711">
        <ele>44.085201</ele>
        <time>2017-10-09T10:24:13Z</time>
      </trkpt>
      <trkpt lat="49.4071" lon="1.37046">
        <ele>45.338749</ele>
        <time>2017-10-09T10:24:28Z</time>
      </trkpt>
      <trkpt lat="49.4072" lon="1.37038">
        <ele>45.725182</ele>
        <time>2017-10-09T10:24:40Z</time>
      </trkpt>
      <trkpt lat="49.40721" lon="1.37037">
        <ele>45.796925</ele>
        <time>2017-10-09T10:25:08Z</time>
      </trkpt>
      <trkpt lat="49.40723" lon="1.37037">
        <ele>45.873779</ele>
        <time>2017-10-09T10:25:14Z</time>
      </trkpt>
      <trkpt lat="49.40779" lon="1.37031">
        <ele>47.305</ele>
        <time>2017-10-09T10:25:31Z</time>
      </trkpt>
      <trkpt lat="49.40817" lon="1.37042">
        <ele>47.235001</ele>
        <time>2017-10-09T10:25:43Z</time>
      </trkpt>
      <trkpt lat="49.40878" lon="1.37068">
        <ele>47.169998</ele>
        <time>2017-10-09T10:25:57Z</time>
      </trkpt>
      <trkpt lat="49.40949" lon="1.37069">
        <ele>47.2995</ele>
        <time>2017-10-09T10:26:13Z</time>
      </trkpt>
      <trkpt lat="49.40987" lon="1.37041">
        <ele>48.484577</ele>
        <time>2017-10-09T10:26:27Z</time>
      </trkpt>
      <trkpt lat="49.41032" lon="1.37036">
        <ele>49.084999</ele>
        <time>2017-10-09T10:26:41Z</time>
      </trkpt>
      <trkpt lat="49.41101" lon="1.37049">
        <ele>50.018257</ele>
        <time>2017-10-09T10:27:01Z</time>
      </trkpt>
      <trkpt lat="49.41174" lon="1.37056">
        <ele>50.538532</ele>
        <time>2017-10-09T10:27:18Z</time>
      </trkpt>
      <trkpt lat="49.41235" lon="1.37048">
        <ele>51.283749</ele>
        <time>2017-10-09T10:27:33Z</time>
      </trkpt>
      <trkpt lat="49.41282" lon="1.37043">
        <ele>51.3325</ele>
        <time>2017-10-09T10:27:49Z</time>
      </trkpt>
      <trkpt lat="49.41303" lon="1.37045">
        <ele>51.305</ele>
        <time>2017-10-09T10:27:59Z</time>
      </trkpt>
      <trkpt lat="49.41299" lon="1.37035">
        <ele>51.451248</ele>
        <time>2017-10-09T10:28:23Z</time>
      </trkpt>
      <trkpt lat="49.41297" lon="1.37031">
        <ele>51.502499</ele>
        <time>2017-10-09T10:29:22Z</time>
      </trkpt>
      <trkpt lat="49.41292" lon="1.37034">
        <ele>51.4725</ele>
        <time>2017-10-09T10:34:43Z</time>
      </trkpt>
      <trkpt lat="49.41291" lon="1.3703">
        <ele>51.526249</ele>
        <time>2017-10-09T10:34:47Z</time>
      </trkpt>
      <trkpt lat="49.41288" lon="1.36987">
        <ele>52.19297</ele>
        <time>2017-10-09T10:35:11Z</time>
      </trkpt>
      <trkpt lat="49.41286" lon="1.36973">
        <ele>52.439587</ele>
        <time>2017-10-09T10:35:37Z</time>
      </trkpt>
      <trkpt lat="49.41284" lon="1.36973">
        <ele>52.462002</ele>
        <time>2017-10-09T10:35:50Z</time>
      </trkpt>
      <trkpt lat="49.41284" lon="1.36979">
        <ele>52.347462</ele>
        <time>2017-10-09T10:36:00Z</time>
      </trkpt>
      <trkpt lat="49.41287" lon="1.37029">
        <ele>51.540001</ele>
        <time>2017-10-09T10:36:15Z</time>
      </trkpt>
      <trkpt lat="49.4126" lon="1.37041">
        <ele>51.368752</ele>
        <time>2017-10-09T10:36:24Z</time>
      </trkpt>
      <trkpt lat="49.41184" lon="1.3705">
        <ele>50.839943</ele>
        <time>2017-10-09T10:36:43Z</time>
      </trkpt>
      <trkpt lat="49.4113" lon="1.37047">
        <ele>50.404549</ele>
        <time>2017-10-09T10:36:59Z</time>
      </trkpt>
      <trkpt lat="49.41063" lon="1.37038">
        <ele>49.702499</ele>
        <time>2017-10-09T10:37:18Z</time>
      </trkpt>
      <trkpt lat="49.40989" lon="1.3703">
        <ele>48.671551</ele>
        <time>2017-10-09T10:37:38Z</time>
      </trkpt>
      <trkpt lat="49.40986" lon="1.37032">
        <ele>48.591938</ele>
        <time>2017-10-09T10:37:39Z</time>
      </trkpt>
      <trkpt lat="49.40954" lon="1.37063">
        <ele>47.54026</ele>
        <time>2017-10-09T10:37:47Z</time>
      </trkpt>
      <trkpt lat="49.40933" lon="1.37071">
        <ele>47.0425</ele>
        <time>2017-10-09T10:37:51Z</time>
      </trkpt>
      <trkpt lat="49.4086" lon="1.37059">
        <ele>47.432499</ele>
        <time>2017-10-09T10:38:08Z</time>
      </trkpt>
      <trkpt lat="49.40783" lon="1.37027">
        <ele>47.427502</ele>
        <time>2017-10-09T10:38:29Z</time>
      </trkpt>
      <trkpt lat="49.40723" lon="1.37029">
        <ele>45.99456</ele>
        <time>2017-10-09T10:38:41Z</time>
      </trkpt>
      <trkpt lat="49.40705" lon="1.37038">
        <ele>45.34375</ele>
        <time>2017-10-09T10:38:45Z</time>
      </trkpt>
      <trkpt lat="49.40681" lon="1.37052">
        <ele>44.627499</ele>
        <time>2017-10-09T10:38:52Z</time>
      </trkpt>
      <trkpt lat="49.40681" lon="1.37072">
        <ele>44.31625</ele>
        <time>2017-10-09T10:38:56Z</time>
      </trkpt>
      <trkpt lat="49.4065" lon="1.37086">
        <ele>44.403812</ele>
        <time>2017-10-09T10:39:09Z</time>
      </trkpt>
      <trkpt lat="49.40642" lon="1.37088">
        <ele>44.5504</ele>
        <time>2017-10-09T10:39:23Z</time>
      </trkpt>
      <trkpt lat="49.40642" lon="1.37087">
        <ele>44.555187</ele>
        <time>2017-10-09T11:16:12Z</time>
      </trkpt>
      <trkpt lat="49.40646" lon="1.37084">
        <ele>44.506687</ele>
        <time>2017-10-09T11:16:21Z</time>
      </trkpt>
      <trkpt lat="49.4065" lon="1.37082">
        <ele>44.425812</ele>
        <time>2017-10-09T11:16:39Z</time>
      </trkpt>
      <trkpt lat="49.4065" lon="1.37081">
        <ele>44.443325</ele>
        <time>2017-10-09T11:16:49Z</time>
      </trkpt>
      <trkpt lat="49.40673" lon="1.37074">
        <ele>44.119999</ele>
        <time>2017-10-09T11:17:04Z</time>
      </trkpt>
      <trkpt lat="49.40679" lon="1.37076">
        <ele>44.2075</ele>
        <time>2017-10-09T11:17:16Z</time>
      </trkpt>
      <trkpt lat="49.40669" lon="1.3713">
        <ele>44.010914</ele>
        <time>2017-10-09T11:17:36Z</time>
      </trkpt>
      <trkpt lat="49.40666" lon="1.37151">
        <ele>43.938751</ele>
        <time>2017-10-09T11:17:41Z</time>
      </trkpt>
      <trkpt lat="49.40673" lon="1.37257">
        <ele>43</ele>
        <time>2017-10-09T11:18:01Z</time>
      </trkpt>
      <trkpt lat="49.40673" lon="1.37365">
        <ele>42</ele>
        <time>2017-10-09T11:18:20Z</time>
      </trkpt>
      <trkpt lat="49.40672" lon="1.37533">
        <ele>41.950001</ele>
        <time>2017-10-09T11:18:46Z</time>
      </trkpt>
      <trkpt lat="49.40666" lon="1.37709">
        <ele>43.302063</ele>
        <time>2017-10-09T11:19:13Z</time>
      </trkpt>
      <trkpt lat="49.40661" lon="1.37791">
        <ele>44.790039</ele>
        <time>2017-10-09T11:19:29Z</time>
      </trkpt>
      <trkpt lat="49.40626" lon="1.37905">
        <ele>46.019299</ele>
        <time>2017-10-09T11:19:53Z</time>
      </trkpt>
      <trkpt lat="49.40624" lon="1.37957">
        <ele>48.872776</ele>
        <time>2017-10-09T11:20:06Z</time>
      </trkpt>
      <trkpt lat="49.40629" lon="1.37963">
        <ele>49.306812</ele>
        <time>2017-10-09T11:20:09Z</time>
      </trkpt>
      <trkpt lat="49.40644" lon="1.37957">
        <ele>49.518902</ele>
        <time>2017-10-09T11:20:22Z</time>
      </trkpt>
      <trkpt lat="49.40644" lon="1.37957">
        <ele>49.524223</ele>
        <time>2017-10-09T11:20:31Z</time>
      </trkpt>
      <trkpt lat="49.40663" lon="1.37954">
        <ele>50.096401</ele>
        <time>2017-10-09T11:21:26Z</time>
      </trkpt>
      <trkpt lat="49.40688" lon="1.37944">
        <ele>50.053013</ele>
        <time>2017-10-09T11:21:38Z</time>
      </trkpt>
      <trkpt lat="49.40688" lon="1.37943">
        <ele>50.018749</ele>
        <time>2017-10-09T11:21:59Z</time>
      </trkpt>
      <trkpt lat="49.4069" lon="1.37944">
        <ele>50.138626</ele>
        <time>2017-10-09T11:22:01Z</time>
      </trkpt>
      <trkpt lat="49.40734" lon="1.3796">
        <ele>52.251125</ele>
        <time>2017-10-09T11:22:13Z</time>
      </trkpt>
      <trkpt lat="49.408" lon="1.37958">
        <ele>52.184288</ele>
        <time>2017-10-09T11:22:29Z</time>
      </trkpt>
      <trkpt lat="49.40888" lon="1.37977">
        <ele>51.990093</ele>
        <time>2017-10-09T11:22:46Z</time>
      </trkpt>
      <trkpt lat="49.40991" lon="1.37961">
        <ele>53.503311</ele>
        <time>2017-10-09T11:23:06Z</time>
      </trkpt>
      <trkpt lat="49.4112" lon="1.37967">
        <ele>53.465302</ele>
        <time>2017-10-09T11:23:32Z</time>
      </trkpt>
      <trkpt lat="49.41183" lon="1.37984">
        <ele>53.126251</ele>
        <time>2017-10-09T11:23:45Z</time>
      </trkpt>
      <trkpt lat="49.41314" lon="1.38007">
        <ele>51.306099</ele>
        <time>2017-10-09T11:24:16Z</time>
      </trkpt>
      <trkpt lat="49.41383" lon="1.38018">
        <ele>50.842499</ele>
        <time>2017-10-09T11:24:35Z</time>
      </trkpt>
      <trkpt lat="49.41388" lon="1.38055">
        <ele>53.476501</ele>
        <time>2017-10-09T11:24:46Z</time>
      </trkpt>
      <trkpt lat="49.41386" lon="1.3814">
        <ele>63.082512</ele>
        <time>2017-10-09T11:25:08Z</time>
      </trkpt>
      <trkpt lat="49.41392" lon="1.38165">
        <ele>65.635941</ele>
        <time>2017-10-09T11:25:20Z</time>
      </trkpt>
      <trkpt lat="49.41403" lon="1.38193">
        <ele>68.811501</ele>
        <time>2017-10-09T11:25:36Z</time>
      </trkpt>
      <trkpt lat="49.41411" lon="1.38218">
        <ele>71.334251</ele>
        <time>2017-10-09T11:25:52Z</time>
      </trkpt>
      <trkpt lat="49.41421" lon="1.38251">
        <ele>73.129204</ele>
        <time>2017-10-09T11:26:10Z</time>
      </trkpt>
      <trkpt lat="49.41435" lon="1.38292">
        <ele>74.587898</ele>
        <time>2017-10-09T11:26:32Z</time>
      </trkpt>
      <trkpt lat="49.41442" lon="1.38332">
        <ele>76.193359</ele>
        <time>2017-10-09T11:26:55Z</time>
      </trkpt>
      <trkpt lat="49.41458" lon="1.3838">
        <ele>75.072342</ele>
        <time>2017-10-09T11:27:20Z</time>
      </trkpt>
      <trkpt lat="49.41469" lon="1.38423">
        <ele>76.246254</ele>
        <time>2017-10-09T11:27:37Z</time>
      </trkpt>
      <trkpt lat="49.41485" lon="1.38473">
        <ele>76.846001</ele>
        <time>2017-10-09T11:28:02Z</time>
      </trkpt>
      <trkpt lat="49.41493" lon="1.38502">
        <ele>78.302124</ele>
        <time>2017-10-09T11:28:20Z</time>
      </trkpt>
      <trkpt lat="49.4149" lon="1.3851">
        <ele>79.367172</ele>
        <time>2017-10-09T11:28:44Z</time>
      </trkpt>
      <trkpt lat="49.41488" lon="1.38515">
        <ele>80.636215</ele>
        <time>2017-10-09T11:28:48Z</time>
      </trkpt>
      <trkpt lat="49.41486" lon="1.38525">
        <ele>82.361084</ele>
        <time>2017-10-09T11:28:57Z</time>
      </trkpt>
      <trkpt lat="49.41485" lon="1.38544">
        <ele>85.355202</ele>
        <time>2017-10-09T11:29:18Z</time>
      </trkpt>
      <trkpt lat="49.41485" lon="1.38551">
        <ele>86.314178</ele>
        <time>2017-10-09T11:29:38Z</time>
      </trkpt>
      <trkpt lat="49.41487" lon="1.38567">
        <ele>87.636436</ele>
        <time>2017-10-09T11:29:56Z</time>
      </trkpt>
      <trkpt lat="49.41492" lon="1.38585">
        <ele>88.687904</ele>
        <time>2017-10-09T11:30:14Z</time>
      </trkpt>
      <trkpt lat="49.41494" lon="1.3859">
        <ele>88.902298</ele>
        <time>2017-10-09T11:30:18Z</time>
      </trkpt>
      <trkpt lat="49.41499" lon="1.38617">
        <ele>90.981697</ele>
        <time>2017-10-09T11:30:39Z</time>
      </trkpt>
      <trkpt lat="49.41502" lon="1.38639">
        <ele>92.876198</ele>
        <time>2017-10-09T11:30:58Z</time>
      </trkpt>
      <trkpt lat="49.41502" lon="1.38647">
        <ele>93.754402</ele>
        <time>2017-10-09T11:31:05Z</time>
      </trkpt>
      <trkpt lat="49.41505" lon="1.38659">
        <ele>93.861244</ele>
        <time>2017-10-09T11:31:25Z</time>
      </trkpt>
      <trkpt lat="49.41508" lon="1.38679">
        <ele>94.712967</ele>
        <time>2017-10-09T11:31:46Z</time>
      </trkpt>
      <trkpt lat="49.41511" lon="1.38687">
        <ele>94.655701</ele>
        <time>2017-10-09T11:32:10Z</time>
      </trkpt>
      <trkpt lat="49.41511" lon="1.38708">
        <ele>96.614899</ele>
        <time>2017-10-09T11:32:25Z</time>
      </trkpt>
      <trkpt lat="49.41514" lon="1.3872">
        <ele>97.151863</ele>
        <time>2017-10-09T11:32:35Z</time>
      </trkpt>
      <trkpt lat="49.41524" lon="1.38747">
        <ele>97.654747</ele>
        <time>2017-10-09T11:32:57Z</time>
      </trkpt>
      <trkpt lat="49.41525" lon="1.38757">
        <ele>98.418816</ele>
        <time>2017-10-09T11:33:17Z</time>
      </trkpt>
      <trkpt lat="49.41529" lon="1.38772">
        <ele>99.170959</ele>
        <time>2017-10-09T11:33:32Z</time>
      </trkpt>
      <trkpt lat="49.41537" lon="1.3879">
        <ele>99.900002</ele>
        <time>2017-10-09T11:33:50Z</time>
      </trkpt>
      <trkpt lat="49.41554" lon="1.38803">
        <ele>98.937187</ele>
        <time>2017-10-09T11:34:17Z</time>
      </trkpt>
      <trkpt lat="49.41562" lon="1.38813">
        <ele>99.147415</ele>
        <time>2017-10-09T11:34:41Z</time>
      </trkpt>
      <trkpt lat="49.41569" lon="1.38822">
        <ele>99.500397</ele>
        <time>2017-10-09T11:34:57Z</time>
      </trkpt>
      <trkpt lat="49.41565" lon="1.38815">
        <ele>98.942398</ele>
        <time>2017-10-09T11:35:16Z</time>
      </trkpt>
      <trkpt lat="49.41563" lon="1.38824">
        <ele>100.553436</ele>
        <time>2017-10-09T11:35:33Z</time>
      </trkpt>
      <trkpt lat="49.41555" lon="1.38815">
        <ele>100.54995</ele>
        <time>2017-10-09T11:35:53Z</time>
      </trkpt>
      <trkpt lat="49.41553" lon="1.38814">
        <ele>100.613503</ele>
        <time>2017-10-09T11:35:56Z</time>
      </trkpt>
      <trkpt lat="49.41533" lon="1.38796">
        <ele>101.351563</ele>
        <time>2017-10-09T11:36:12Z</time>
      </trkpt>
      <trkpt lat="49.41521" lon="1.38754">
        <ele>98.985374</ele>
        <time>2017-10-09T11:36:23Z</time>
      </trkpt>
      <trkpt lat="49.41511" lon="1.38719">
        <ele>97.678848</ele>
        <time>2017-10-09T11:36:34Z</time>
      </trkpt>
      <trkpt lat="49.41504" lon="1.38668">
        <ele>95.071938</ele>
        <time>2017-10-09T11:36:48Z</time>
      </trkpt>
      <trkpt lat="49.41498" lon="1.38632">
        <ele>93.112099</ele>
        <time>2017-10-09T11:37:00Z</time>
      </trkpt>
      <trkpt lat="49.4149" lon="1.38586">
        <ele>89.439247</ele>
        <time>2017-10-09T11:37:18Z</time>
      </trkpt>
      <trkpt lat="49.41483" lon="1.38543">
        <ele>85.750847</ele>
        <time>2017-10-09T11:37:36Z</time>
      </trkpt>
      <trkpt lat="49.41484" lon="1.38537">
        <ele>84.871376</ele>
        <time>2017-10-09T11:37:38Z</time>
      </trkpt>
      <trkpt lat="49.4149" lon="1.385">
        <ele>78.205315</ele>
        <time>2017-10-09T11:37:52Z</time>
      </trkpt>
      <trkpt lat="49.41489" lon="1.38491">
        <ele>77.423561</ele>
        <time>2017-10-09T11:37:55Z</time>
      </trkpt>
      <trkpt lat="49.41468" lon="1.38421">
        <ele>76.441803</ele>
        <time>2017-10-09T11:38:08Z</time>
      </trkpt>
      <trkpt lat="49.41429" lon="1.38281">
        <ele>74.774811</ele>
        <time>2017-10-09T11:38:27Z</time>
      </trkpt>
      <trkpt lat="49.41415" lon="1.38241">
        <ele>73.693878</ele>
        <time>2017-10-09T11:38:37Z</time>
      </trkpt>
      <trkpt lat="49.41395" lon="1.38185">
        <ele>68.776558</ele>
        <time>2017-10-09T11:38:48Z</time>
      </trkpt>
      <trkpt lat="49.41391" lon="1.38141">
        <ele>62.532818</ele>
        <time>2017-10-09T11:38:58Z</time>
      </trkpt>
      <trkpt lat="49.41393" lon="1.38129">
        <ele>60.715542</ele>
        <time>2017-10-09T11:39:00Z</time>
      </trkpt>
      <trkpt lat="49.41387" lon="1.38031">
        <ele>51.415974</ele>
        <time>2017-10-09T11:39:13Z</time>
      </trkpt>
      <trkpt lat="49.41391" lon="1.38025">
        <ele>50.987499</ele>
        <time>2017-10-09T11:39:15Z</time>
      </trkpt>
      <trkpt lat="49.41456" lon="1.38058">
        <ele>52.525249</ele>
        <time>2017-10-09T11:39:31Z</time>
      </trkpt>
      <trkpt lat="49.41584" lon="1.38131">
        <ele>56.915199</ele>
        <time>2017-10-09T11:39:59Z</time>
      </trkpt>
      <trkpt lat="49.4167" lon="1.3818">
        <ele>55.928749</ele>
        <time>2017-10-09T11:40:21Z</time>
      </trkpt>
      <trkpt lat="49.41754" lon="1.38198">
        <ele>54.892487</ele>
        <time>2017-10-09T11:40:42Z</time>
      </trkpt>
      <trkpt lat="49.41849" lon="1.38236">
        <ele>54.71265</ele>
        <time>2017-10-09T11:41:07Z</time>
      </trkpt>
      <trkpt lat="49.4191" lon="1.38261">
        <ele>56.235107</ele>
        <time>2017-10-09T11:41:27Z</time>
      </trkpt>
      <trkpt lat="49.41982" lon="1.3828">
        <ele>55.602852</ele>
        <time>2017-10-09T11:41:51Z</time>
      </trkpt>
      <trkpt lat="49.42029" lon="1.3829">
        <ele>55.714249</ele>
        <time>2017-10-09T11:42:07Z</time>
      </trkpt>
      <trkpt lat="49.42101" lon="1.38309">
        <ele>56.404686</ele>
        <time>2017-10-09T11:42:26Z</time>
      </trkpt>
      <trkpt lat="49.42204" lon="1.38345">
        <ele>60.046062</ele>
        <time>2017-10-09T11:42:49Z</time>
      </trkpt>
      <trkpt lat="49.42307" lon="1.38362">
        <ele>56.311176</ele>
        <time>2017-10-09T11:43:13Z</time>
      </trkpt>
      <trkpt lat="49.42394" lon="1.38366">
        <ele>54.606251</ele>
        <time>2017-10-09T11:43:33Z</time>
      </trkpt>
      <trkpt lat="49.42496" lon="1.38382">
        <ele>56.490208</ele>
        <time>2017-10-09T11:43:55Z</time>
      </trkpt>
      <trkpt lat="49.42501" lon="1.3838">
        <ele>56.172974</ele>
        <time>2017-10-09T11:44:07Z</time>
      </trkpt>
      <trkpt lat="49.42501" lon="1.3838">
        <ele>56.172974</ele>
        <time>2017-10-09T11:44:11Z</time>
      </trkpt>
      <trkpt lat="49.42507" lon="1.38379">
        <ele>55.936001</ele>
        <time>2017-10-09T11:44:15Z</time>
      </trkpt>
      <trkpt lat="49.42553" lon="1.38374">
        <ele>55.927799</ele>
        <time>2017-10-09T11:44:28Z</time>
      </trkpt>
      <trkpt lat="49.42576" lon="1.38359">
        <ele>54.271252</ele>
        <time>2017-10-09T11:44:34Z</time>
      </trkpt>
      <trkpt lat="49.42655" lon="1.38305">
        <ele>51.493561</ele>
        <time>2017-10-09T11:44:54Z</time>
      </trkpt>
      <trkpt lat="49.42706" lon="1.383">
        <ele>51.444645</ele>
        <time>2017-10-09T11:45:06Z</time>
      </trkpt>
      <trkpt lat="49.42741" lon="1.38303">
        <ele>52.133724</ele>
        <time>2017-10-09T11:45:16Z</time>
      </trkpt>
      <trkpt lat="49.42816" lon="1.38319">
        <ele>53.5942</ele>
        <time>2017-10-09T11:45:35Z</time>
      </trkpt>
      <trkpt lat="49.42902" lon="1.38334">
        <ele>52.702076</ele>
        <time>2017-10-09T11:45:55Z</time>
      </trkpt>
      <trkpt lat="49.42922" lon="1.38336">
        <ele>52.4748</ele>
        <time>2017-10-09T11:46:04Z</time>
      </trkpt>
      <trkpt lat="49.42922" lon="1.38313">
        <ele>50.776775</ele>
        <time>2017-10-09T11:46:15Z</time>
      </trkpt>
      <trkpt lat="49.42919" lon="1.38293">
        <ele>49.319687</ele>
        <time>2017-10-09T11:46:23Z</time>
      </trkpt>
      <trkpt lat="49.42898" lon="1.38214">
        <ele>48</ele>
        <time>2017-10-09T11:46:41Z</time>
      </trkpt>
      <trkpt lat="49.42868" lon="1.3813">
        <ele>48.218414</ele>
        <time>2017-10-09T11:46:59Z</time>
      </trkpt>
      <trkpt lat="49.42844" lon="1.38021">
        <ele>49.776699</ele>
        <time>2017-10-09T11:47:19Z</time>
      </trkpt>
      <trkpt lat="49.42841" lon="1.37982">
        <ele>50</ele>
        <time>2017-10-09T11:47:32Z</time>
      </trkpt>
      <trkpt lat="49.42846" lon="1.37979">
        <ele>50</ele>
        <time>2017-10-09T11:47:37Z</time>
      </trkpt>
      <trkpt lat="49.42866" lon="1.37985">
        <ele>50</ele>
        <time>2017-10-09T11:47:51Z</time>
      </trkpt>
      <trkpt lat="49.42889" lon="1.3799">
        <ele>50.235001</ele>
        <time>2017-10-09T11:48:49Z</time>
      </trkpt>
      <trkpt lat="49.42947" lon="1.37996">
        <ele>51</ele>
        <time>2017-10-09T11:49:05Z</time>
      </trkpt>
      <trkpt lat="49.43007" lon="1.38004">
        <ele>51.070538</ele>
        <time>2017-10-09T11:49:23Z</time>
      </trkpt>
      <trkpt lat="49.43068" lon="1.38008">
        <ele>52</ele>
        <time>2017-10-09T11:49:41Z</time>
      </trkpt>
      <trkpt lat="49.43112" lon="1.38012">
        <ele>52</ele>
        <time>2017-10-09T11:49:55Z</time>
      </trkpt>
      <trkpt lat="49.4317" lon="1.38018">
        <ele>52</ele>
        <time>2017-10-09T11:50:14Z</time>
      </trkpt>
      <trkpt lat="49.43188" lon="1.38019">
        <ele>52</ele>
        <time>2017-10-09T11:50:30Z</time>
      </trkpt>
      <trkpt lat="49.43186" lon="1.38018">
        <ele>52</ele>
        <time>2017-10-09T11:51:00Z</time>
      </trkpt>
      <trkpt lat="49.43141" lon="1.38016">
        <ele>52</ele>
        <time>2017-10-09T11:51:14Z</time>
      </trkpt>
      <trkpt lat="49.43052" lon="1.38008">
        <ele>51.872688</ele>
        <time>2017-10-09T11:51:36Z</time>
      </trkpt>
      <trkpt lat="49.42961" lon="1.37998">
        <ele>51</ele>
        <time>2017-10-09T11:51:57Z</time>
      </trkpt>
      <trkpt lat="49.42903" lon="1.37994">
        <ele>50.549999</ele>
        <time>2017-10-09T11:52:10Z</time>
      </trkpt>
      <trkpt lat="49.42847" lon="1.37984">
        <ele>50</ele>
        <time>2017-10-09T11:52:25Z</time>
      </trkpt>
      <trkpt lat="49.42844" lon="1.37983">
        <ele>50</ele>
        <time>2017-10-09T11:52:26Z</time>
      </trkpt>
      <trkpt lat="49.42838" lon="1.37999">
        <ele>50</ele>
        <time>2017-10-09T11:52:31Z</time>
      </trkpt>
      <trkpt lat="49.42851" lon="1.38081">
        <ele>49.145664</ele>
        <time>2017-10-09T11:52:46Z</time>
      </trkpt>
      <trkpt lat="49.42882" lon="1.38171">
        <ele>48.036751</ele>
        <time>2017-10-09T11:53:04Z</time>
      </trkpt>
      <trkpt lat="49.42917" lon="1.3829">
        <ele>49.105</ele>
        <time>2017-10-09T11:53:26Z</time>
      </trkpt>
      <trkpt lat="49.42943" lon="1.38349">
        <ele>53.557251</ele>
        <time>2017-10-09T11:53:40Z</time>
      </trkpt>
      <trkpt lat="49.4298" lon="1.38387">
        <ele>56.705849</ele>
        <time>2017-10-09T11:53:56Z</time>
      </trkpt>
      <trkpt lat="49.42997" lon="1.38401">
        <ele>57.327339</ele>
        <time>2017-10-09T11:54:06Z</time>
      </trkpt>
      <trkpt lat="49.43017" lon="1.38407">
        <ele>56.704475</ele>
        <time>2017-10-09T11:54:12Z</time>
      </trkpt>
      <trkpt lat="49.43058" lon="1.38408">
        <ele>58.632401</ele>
        <time>2017-10-09T11:54:22Z</time>
      </trkpt>
      <trkpt lat="49.43085" lon="1.38407">
        <ele>58.225601</ele>
        <time>2017-10-09T11:54:27Z</time>
      </trkpt>
      <trkpt lat="49.43143" lon="1.38406">
        <ele>57.81168</ele>
        <time>2017-10-09T11:54:41Z</time>
      </trkpt>
      <trkpt lat="49.43193" lon="1.38401">
        <ele>56.673744</ele>
        <time>2017-10-09T11:54:55Z</time>
      </trkpt>
      <trkpt lat="49.43244" lon="1.38398">
        <ele>55.564999</ele>
        <time>2017-10-09T11:55:11Z</time>
      </trkpt>
      <trkpt lat="49.43308" lon="1.38421">
        <ele>56.533001</ele>
        <time>2017-10-09T11:55:26Z</time>
      </trkpt>
      <trkpt lat="49.43375" lon="1.38455">
        <ele>55.08025</ele>
        <time>2017-10-09T11:55:43Z</time>
      </trkpt>
      <trkpt lat="49.43475" lon="1.38485">
        <ele>55.2225</ele>
        <time>2017-10-09T11:56:03Z</time>
      </trkpt>
      <trkpt lat="49.43512" lon="1.38493">
        <ele>57.301701</ele>
        <time>2017-10-09T11:56:12Z</time>
      </trkpt>
      <trkpt lat="49.43596" lon="1.38496">
        <ele>58.16</ele>
        <time>2017-10-09T11:56:32Z</time>
      </trkpt>
      <trkpt lat="49.43665" lon="1.38503">
        <ele>58.625</ele>
        <time>2017-10-09T11:56:48Z</time>
      </trkpt>
      <trkpt lat="49.43714" lon="1.38486">
        <ele>56.92205</ele>
        <time>2017-10-09T11:57:03Z</time>
      </trkpt>
      <trkpt lat="49.4376" lon="1.38463">
        <ele>56.957062</ele>
        <time>2017-10-09T11:57:18Z</time>
      </trkpt>
      <trkpt lat="49.43764" lon="1.38463">
        <ele>57.105</ele>
        <time>2017-10-09T11:57:19Z</time>
      </trkpt>
      <trkpt lat="49.43816" lon="1.38468">
        <ele>59.852501</ele>
        <time>2017-10-09T11:57:29Z</time>
      </trkpt>
      <trkpt lat="49.43834" lon="1.38465">
        <ele>60.200462</ele>
        <time>2017-10-09T11:57:36Z</time>
      </trkpt>
      <trkpt lat="49.43827" lon="1.38442">
        <ele>58.364201</ele>
        <time>2017-10-09T11:57:50Z</time>
      </trkpt>
      <trkpt lat="49.43827" lon="1.38443">
        <ele>58.420403</ele>
        <time>2017-10-09T11:58:10Z</time>
      </trkpt>
      <trkpt lat="49.43843" lon="1.38467">
        <ele>60.608475</ele>
        <time>2017-10-09T11:58:23Z</time>
      </trkpt>
      <trkpt lat="49.43892" lon="1.3847">
        <ele>62.158649</ele>
        <time>2017-10-09T11:58:43Z</time>
      </trkpt>
      <trkpt lat="49.43932" lon="1.38466">
        <ele>62.762337</ele>
        <time>2017-10-09T11:58:58Z</time>
      </trkpt>
      <trkpt lat="49.43965" lon="1.38461">
        <ele>62.973751</ele>
        <time>2017-10-09T11:59:13Z</time>
      </trkpt>
      <trkpt lat="49.4399" lon="1.38456">
        <ele>63.11375</ele>
        <time>2017-10-09T11:59:27Z</time>
      </trkpt>
      <trkpt lat="49.44024" lon="1.38468">
        <ele>64.889656</ele>
        <time>2017-10-09T11:59:54Z</time>
      </trkpt>
      <trkpt lat="49.44041" lon="1.38483">
        <ele>66.687141</ele>
        <time>2017-10-09T12:00:12Z</time>
      </trkpt>
      <trkpt lat="49.44061" lon="1.38496">
        <ele>67.788734</ele>
        <time>2017-10-09T12:00:32Z</time>
      </trkpt>
      <trkpt lat="49.44063" lon="1.38498">
        <ele>67.976395</ele>
        <time>2017-10-09T12:00:43Z</time>
      </trkpt>
      <trkpt lat="49.44063" lon="1.38498">
        <ele>68.007462</ele>
        <time>2017-10-09T12:04:58Z</time>
      </trkpt>
      <trkpt lat="49.44067" lon="1.38498">
        <ele>67.818466</ele>
        <time>2017-10-09T12:05:14Z</time>
      </trkpt>
      <trkpt lat="49.44074" lon="1.38503">
        <ele>68.221703</ele>
        <time>2017-10-09T12:05:30Z</time>
      </trkpt>
      <trkpt lat="49.44108" lon="1.38527">
        <ele>69.958252</ele>
        <time>2017-10-09T12:05:43Z</time>
      </trkpt>
      <trkpt lat="49.44151" lon="1.38556">
        <ele>70.522247</ele>
        <time>2017-10-09T12:05:58Z</time>
      </trkpt>
      <trkpt lat="49.44177" lon="1.3857">
        <ele>70.726189</ele>
        <time>2017-10-09T12:06:06Z</time>
      </trkpt>
      <trkpt lat="49.44249" lon="1.38582">
        <ele>70.364998</ele>
        <time>2017-10-09T12:06:19Z</time>
      </trkpt>
      <trkpt lat="49.44307" lon="1.38593">
        <ele>70.4515</ele>
        <time>2017-10-09T12:06:33Z</time>
      </trkpt>
      <trkpt lat="49.44387" lon="1.38596">
        <ele>69.864998</ele>
        <time>2017-10-09T12:06:51Z</time>
      </trkpt>
      <trkpt lat="49.44452" lon="1.38604">
        <ele>69.431198</ele>
        <time>2017-10-09T12:07:02Z</time>
      </trkpt>
      <trkpt lat="49.44464" lon="1.38621">
        <ele>69.690002</ele>
        <time>2017-10-09T12:07:06Z</time>
      </trkpt>
      <trkpt lat="49.44469" lon="1.38628">
        <ele>69.802498</ele>
        <time>2017-10-09T12:07:09Z</time>
      </trkpt>
      <trkpt lat="49.44527" lon="1.38646">
        <ele>69.0625</ele>
        <time>2017-10-09T12:07:25Z</time>
      </trkpt>
      <trkpt lat="49.44579" lon="1.38672">
        <ele>68.695</ele>
        <time>2017-10-09T12:07:40Z</time>
      </trkpt>
      <trkpt lat="49.44609" lon="1.38706">
        <ele>69.140823</ele>
        <time>2017-10-09T12:07:52Z</time>
      </trkpt>
      <trkpt lat="49.44625" lon="1.3883">
        <ele>69.264999</ele>
        <time>2017-10-09T12:08:10Z</time>
      </trkpt>
      <trkpt lat="49.44655" lon="1.38928">
        <ele>70.325714</ele>
        <time>2017-10-09T12:08:28Z</time>
      </trkpt>
      <trkpt lat="49.44681" lon="1.38979">
        <ele>73.056252</ele>
        <time>2017-10-09T12:08:47Z</time>
      </trkpt>
      <trkpt lat="49.44708" lon="1.39042">
        <ele>76.127899</ele>
        <time>2017-10-09T12:09:14Z</time>
      </trkpt>
      <trkpt lat="49.44731" lon="1.3911">
        <ele>78.813629</ele>
        <time>2017-10-09T12:09:40Z</time>
      </trkpt>
      <trkpt lat="49.44756" lon="1.39187">
        <ele>81.316299</ele>
        <time>2017-10-09T12:10:08Z</time>
      </trkpt>
      <trkpt lat="49.44776" lon="1.39258">
        <ele>83.517502</ele>
        <time>2017-10-09T12:10:34Z</time>
      </trkpt>
      <trkpt lat="49.4479" lon="1.39351">
        <ele>87.116005</ele>
        <time>2017-10-09T12:11:06Z</time>
      </trkpt>
      <trkpt lat="49.44804" lon="1.39381">
        <ele>88.289703</ele>
        <time>2017-10-09T12:11:20Z</time>
      </trkpt>
      <trkpt lat="49.44822" lon="1.39387">
        <ele>87.956253</ele>
        <time>2017-10-09T12:11:28Z</time>
      </trkpt>
      <trkpt lat="49.44852" lon="1.39385">
        <ele>87.223747</ele>
        <time>2017-10-09T12:11:38Z</time>
      </trkpt>
      <trkpt lat="49.44908" lon="1.39391">
        <ele>86.276253</ele>
        <time>2017-10-09T12:11:52Z</time>
      </trkpt>
      <trkpt lat="49.44944" lon="1.39403">
        <ele>86.022499</ele>
        <time>2017-10-09T12:12:01Z</time>
      </trkpt>
      <trkpt lat="49.44974" lon="1.3943">
        <ele>87.169998</ele>
        <time>2017-10-09T12:12:09Z</time>
      </trkpt>
      <trkpt lat="49.45012" lon="1.39466">
        <ele>88.607651</ele>
        <time>2017-10-09T12:12:22Z</time>
      </trkpt>
      <trkpt lat="49.45039" lon="1.39496">
        <ele>89.446915</ele>
        <time>2017-10-09T12:12:33Z</time>
      </trkpt>
      <trkpt lat="49.45067" lon="1.39525">
        <ele>90.978401</ele>
        <time>2017-10-09T12:12:47Z</time>
      </trkpt>
      <trkpt lat="49.45108" lon="1.3956">
        <ele>91.453751</ele>
        <time>2017-10-09T12:13:02Z</time>
      </trkpt>
      <trkpt lat="49.45137" lon="1.39586">
        <ele>92.129997</ele>
        <time>2017-10-09T12:13:17Z</time>
      </trkpt>
      <trkpt lat="49.4517" lon="1.39615">
        <ele>92.763435</ele>
        <time>2017-10-09T12:13:31Z</time>
      </trkpt>
      <trkpt lat="49.45205" lon="1.39649">
        <ele>93.002167</ele>
        <time>2017-10-09T12:13:46Z</time>
      </trkpt>
      <trkpt lat="49.45229" lon="1.3968">
        <ele>93.92025</ele>
        <time>2017-10-09T12:13:58Z</time>
      </trkpt>
      <trkpt lat="49.45257" lon="1.39704">
        <ele>92.319389</ele>
        <time>2017-10-09T12:14:09Z</time>
      </trkpt>
      <trkpt lat="49.45296" lon="1.39743">
        <ele>89.872009</ele>
        <time>2017-10-09T12:14:22Z</time>
      </trkpt>
      <trkpt lat="49.45306" lon="1.39765">
        <ele>88.694588</ele>
        <time>2017-10-09T12:14:26Z</time>
      </trkpt>
      <trkpt lat="49.45312" lon="1.39823">
        <ele>88.252129</ele>
        <time>2017-10-09T12:14:38Z</time>
      </trkpt>
      <trkpt lat="49.45305" lon="1.39871">
        <ele>91.163399</ele>
        <time>2017-10-09T12:14:53Z</time>
      </trkpt>
      <trkpt lat="49.45294" lon="1.39909">
        <ele>93.991051</ele>
        <time>2017-10-09T12:15:05Z</time>
      </trkpt>
      <trkpt lat="49.45282" lon="1.39951">
        <ele>96.597565</ele>
        <time>2017-10-09T12:15:19Z</time>
      </trkpt>
      <trkpt lat="49.45272" lon="1.39989">
        <ele>99.333809</ele>
        <time>2017-10-09T12:15:33Z</time>
      </trkpt>
      <trkpt lat="49.45257" lon="1.40023">
        <ele>104.518112</ele>
        <time>2017-10-09T12:15:48Z</time>
      </trkpt>
      <trkpt lat="49.45237" lon="1.40053">
        <ele>110.065689</ele>
        <time>2017-10-09T12:16:04Z</time>
      </trkpt>
      <trkpt lat="49.45222" lon="1.40077">
        <ele>112.400002</ele>
        <time>2017-10-09T12:16:18Z</time>
      </trkpt>
      <trkpt lat="49.45199" lon="1.40104">
        <ele>116.412193</ele>
        <time>2017-10-09T12:16:34Z</time>
      </trkpt>
      <trkpt lat="49.45175" lon="1.40122">
        <ele>119.423218</ele>
        <time>2017-10-09T12:16:50Z</time>
      </trkpt>
      <trkpt lat="49.45156" lon="1.40139">
        <ele>121.579475</ele>
        <time>2017-10-09T12:17:03Z</time>
      </trkpt>
      <trkpt lat="49.45136" lon="1.4016">
        <ele>123.794998</ele>
        <time>2017-10-09T12:17:17Z</time>
      </trkpt>
      <trkpt lat="49.45119" lon="1.40174">
        <ele>125.807884</ele>
        <time>2017-10-09T12:17:30Z</time>
      </trkpt>
      <trkpt lat="49.45107" lon="1.40185">
        <ele>127.125275</ele>
        <time>2017-10-09T12:17:46Z</time>
      </trkpt>
      <trkpt lat="49.45091" lon="1.40208">
        <ele>128.5961</ele>
        <time>2017-10-09T12:18:03Z</time>
      </trkpt>
      <trkpt lat="49.4507" lon="1.40239">
        <ele>130.437622</ele>
        <time>2017-10-09T12:18:24Z</time>
      </trkpt>
      <trkpt lat="49.45053" lon="1.40265">
        <ele>131.123001</ele>
        <time>2017-10-09T12:18:40Z</time>
      </trkpt>
      <trkpt lat="49.45037" lon="1.40289">
        <ele>132.280899</ele>
        <time>2017-10-09T12:18:57Z</time>
      </trkpt>
      <trkpt lat="49.45019" lon="1.40311">
        <ele>134.191757</ele>
        <time>2017-10-09T12:19:13Z</time>
      </trkpt>
      <trkpt lat="49.45003" lon="1.40332">
        <ele>135.558105</ele>
        <time>2017-10-09T12:19:27Z</time>
      </trkpt>
      <trkpt lat="49.44992" lon="1.40356">
        <ele>135.871155</ele>
        <time>2017-10-09T12:19:44Z</time>
      </trkpt>
      <trkpt lat="49.44972" lon="1.4038">
        <ele>137.173996</ele>
        <time>2017-10-09T12:20:05Z</time>
      </trkpt>
      <trkpt lat="49.44955" lon="1.40402">
        <ele>139.181702</ele>
        <time>2017-10-09T12:20:21Z</time>
      </trkpt>
      <trkpt lat="49.44942" lon="1.40423">
        <ele>139.916351</ele>
        <time>2017-10-09T12:20:39Z</time>
      </trkpt>
      <trkpt lat="49.44933" lon="1.40444">
        <ele>139.448196</ele>
        <time>2017-10-09T12:20:55Z</time>
      </trkpt>
      <trkpt lat="49.44914" lon="1.40471">
        <ele>141.4702</ele>
        <time>2017-10-09T12:21:15Z</time>
      </trkpt>
      <trkpt lat="49.44906" lon="1.40478">
        <ele>142.428986</ele>
        <time>2017-10-09T12:21:31Z</time>
      </trkpt>
      <trkpt lat="49.44892" lon="1.40476">
        <ele>144.020004</ele>
        <time>2017-10-09T12:21:48Z</time>
      </trkpt>
      <trkpt lat="49.44883" lon="1.40475">
        <ele>145.115494</ele>
        <time>2017-10-09T12:22:06Z</time>
      </trkpt>
      <trkpt lat="49.44874" lon="1.4047">
        <ele>146.559998</ele>
        <time>2017-10-09T12:22:27Z</time>
      </trkpt>
      <trkpt lat="49.44861" lon="1.40462">
        <ele>148.899994</ele>
        <time>2017-10-09T12:22:51Z</time>
      </trkpt>
      <trkpt lat="49.44855" lon="1.40455">
        <ele>150.360001</ele>
        <time>2017-10-09T12:23:06Z</time>
      </trkpt>
      <trkpt lat="49.44844" lon="1.40452">
        <ele>152.304993</ele>
        <time>2017-10-09T12:23:30Z</time>
      </trkpt>
      <trkpt lat="49.44834" lon="1.40445">
        <ele>154.179993</ele>
        <time>2017-10-09T12:23:51Z</time>
      </trkpt>
      <trkpt lat="49.44821" lon="1.40434">
        <ele>156.102798</ele>
        <time>2017-10-09T12:24:12Z</time>
      </trkpt>
      <trkpt lat="49.4482" lon="1.40433">
        <ele>156.252808</ele>
        <time>2017-10-09T12:24:41Z</time>
      </trkpt>
      <trkpt lat="49.44817" lon="1.40432">
        <ele>156.568344</ele>
        <time>2017-10-09T12:25:25Z</time>
      </trkpt>
      <trkpt lat="49.448" lon="1.40413">
        <ele>158.337967</ele>
        <time>2017-10-09T12:26:10Z</time>
      </trkpt>
      <trkpt lat="49.44773" lon="1.40396">
        <ele>160.176254</ele>
        <time>2017-10-09T12:26:36Z</time>
      </trkpt>
      <trkpt lat="49.44765" lon="1.40389">
        <ele>160.664993</ele>
        <time>2017-10-09T12:26:57Z</time>
      </trkpt>
      <trkpt lat="49.44738" lon="1.40373">
        <ele>162.009995</ele>
        <time>2017-10-09T12:27:10Z</time>
      </trkpt>
      <trkpt lat="49.44711" lon="1.40353">
        <ele>162.625</ele>
        <time>2017-10-09T12:27:24Z</time>
      </trkpt>
      <trkpt lat="49.44679" lon="1.40334">
        <ele>163.236008</ele>
        <time>2017-10-09T12:27:38Z</time>
      </trkpt>
      <trkpt lat="49.4466" lon="1.40318">
        <ele>163.18927</ele>
        <time>2017-10-09T12:27:46Z</time>
      </trkpt>
      <trkpt lat="49.44622" lon="1.40295">
        <ele>163.137497</ele>
        <time>2017-10-09T12:28:00Z</time>
      </trkpt>
      <trkpt lat="49.44588" lon="1.40269">
        <ele>162.939835</ele>
        <time>2017-10-09T12:28:14Z</time>
      </trkpt>
      <trkpt lat="49.44553" lon="1.40248">
        <ele>162.225006</ele>
        <time>2017-10-09T12:28:26Z</time>
      </trkpt>
      <trkpt lat="49.4452" lon="1.40229">
        <ele>161.229996</ele>
        <time>2017-10-09T12:28:37Z</time>
      </trkpt>
      <trkpt lat="49.44505" lon="1.40259">
        <ele>162.741669</ele>
        <time>2017-10-09T12:28:48Z</time>
      </trkpt>
      <trkpt lat="49.44486" lon="1.40303">
        <ele>165.100296</ele>
        <time>2017-10-09T12:29:01Z</time>
      </trkpt>
      <trkpt lat="49.44467" lon="1.40351">
        <ele>166.581436</ele>
        <time>2017-10-09T12:29:17Z</time>
      </trkpt>
      <trkpt lat="49.44452" lon="1.40396">
        <ele>167.578751</ele>
        <time>2017-10-09T12:29:33Z</time>
      </trkpt>
      <trkpt lat="49.44428" lon="1.40446">
        <ele>168.854996</ele>
        <time>2017-10-09T12:29:47Z</time>
      </trkpt>
      <trkpt lat="49.4441" lon="1.40491">
        <ele>169.345001</ele>
        <time>2017-10-09T12:30:00Z</time>
      </trkpt>
      <trkpt lat="49.44393" lon="1.40541">
        <ele>169.720001</ele>
        <time>2017-10-09T12:30:13Z</time>
      </trkpt>
      <trkpt lat="49.44376" lon="1.40587">
        <ele>170.006256</ele>
        <time>2017-10-09T12:30:25Z</time>
      </trkpt>
      <trkpt lat="49.44351" lon="1.40652">
        <ele>169.401779</ele>
        <time>2017-10-09T12:30:40Z</time>
      </trkpt>
      <trkpt lat="49.44329" lon="1.40719">
        <ele>167.596252</ele>
        <time>2017-10-09T12:30:54Z</time>
      </trkpt>
      <trkpt lat="49.44319" lon="1.40783">
        <ele>166.740005</ele>
        <time>2017-10-09T12:31:09Z</time>
      </trkpt>
      <trkpt lat="49.44322" lon="1.40815">
        <ele>167.083847</ele>
        <time>2017-10-09T12:31:19Z</time>
      </trkpt>
      <trkpt lat="49.4431" lon="1.40869">
        <ele>167.375</ele>
        <time>2017-10-09T12:31:33Z</time>
      </trkpt>
      <trkpt lat="49.4428" lon="1.40867">
        <ele>166.420731</ele>
        <time>2017-10-09T12:31:44Z</time>
      </trkpt>
      <trkpt lat="49.44277" lon="1.40868">
        <ele>166.272736</ele>
        <time>2017-10-09T12:31:45Z</time>
      </trkpt>
      <trkpt lat="49.4425" lon="1.40869">
        <ele>165.085678</ele>
        <time>2017-10-09T12:31:53Z</time>
      </trkpt>
      <trkpt lat="49.44179" lon="1.40875">
        <ele>161.608749</ele>
        <time>2017-10-09T12:32:07Z</time>
      </trkpt>
      <trkpt lat="49.44141" lon="1.40897">
        <ele>159.541</ele>
        <time>2017-10-09T12:32:16Z</time>
      </trkpt>
      <trkpt lat="49.44136" lon="1.409">
        <ele>159.19368</ele>
        <time>2017-10-09T12:32:17Z</time>
      </trkpt>
      <trkpt lat="49.4412" lon="1.40909">
        <ele>158.328094</ele>
        <time>2017-10-09T12:32:20Z</time>
      </trkpt>
      <trkpt lat="49.44087" lon="1.40898">
        <ele>158.778748</ele>
        <time>2017-10-09T12:32:27Z</time>
      </trkpt>
      <trkpt lat="49.4407" lon="1.40884">
        <ele>158.893753</ele>
        <time>2017-10-09T12:32:32Z</time>
      </trkpt>
      <trkpt lat="49.44031" lon="1.40875">
        <ele>160.713242</ele>
        <time>2017-10-09T12:32:45Z</time>
      </trkpt>
      <trkpt lat="49.44007" lon="1.40873">
        <ele>161.808914</ele>
        <time>2017-10-09T12:33:00Z</time>
      </trkpt>
      <trkpt lat="49.43981" lon="1.40872">
        <ele>162.869629</ele>
        <time>2017-10-09T12:33:14Z</time>
      </trkpt>
      <trkpt lat="49.43951" lon="1.40874">
        <ele>163.665543</ele>
        <time>2017-10-09T12:33:28Z</time>
      </trkpt>
      <trkpt lat="49.43918" lon="1.40878">
        <ele>163.79982</ele>
        <time>2017-10-09T12:33:42Z</time>
      </trkpt>
      <trkpt lat="49.43888" lon="1.4088">
        <ele>163.257309</ele>
        <time>2017-10-09T12:33:56Z</time>
      </trkpt>
      <trkpt lat="49.43857" lon="1.40876">
        <ele>163.745392</ele>
        <time>2017-10-09T12:34:09Z</time>
      </trkpt>
      <trkpt lat="49.43826" lon="1.40875">
        <ele>163.586319</ele>
        <time>2017-10-09T12:34:20Z</time>
      </trkpt>
      <trkpt lat="49.43782" lon="1.40873">
        <ele>162.211716</ele>
        <time>2017-10-09T12:34:31Z</time>
      </trkpt>
      <trkpt lat="49.43765" lon="1.40858">
        <ele>161.246323</ele>
        <time>2017-10-09T12:34:38Z</time>
      </trkpt>
      <trkpt lat="49.43734" lon="1.40812">
        <ele>156.1763</ele>
        <time>2017-10-09T12:34:50Z</time>
      </trkpt>
      <trkpt lat="49.43706" lon="1.40776">
        <ele>147.611969</ele>
        <time>2017-10-09T12:35:01Z</time>
      </trkpt>
      <trkpt lat="49.43672" lon="1.40726">
        <ele>136.965729</ele>
        <time>2017-10-09T12:35:16Z</time>
      </trkpt>
      <trkpt lat="49.43656" lon="1.40687">
        <ele>132.367294</ele>
        <time>2017-10-09T12:35:29Z</time>
      </trkpt>
      <trkpt lat="49.4365" lon="1.40667">
        <ele>130.180634</ele>
        <time>2017-10-09T12:35:34Z</time>
      </trkpt>
      <trkpt lat="49.43643" lon="1.40611">
        <ele>125.5868</ele>
        <time>2017-10-09T12:35:46Z</time>
      </trkpt>
      <trkpt lat="49.43631" lon="1.40567">
        <ele>120.315002</ele>
        <time>2017-10-09T12:35:58Z</time>
      </trkpt>
      <trkpt lat="49.43619" lon="1.40532">
        <ele>115.504623</ele>
        <time>2017-10-09T12:36:08Z</time>
      </trkpt>
      <trkpt lat="49.4361" lon="1.40521">
        <ele>113.124947</ele>
        <time>2017-10-09T12:36:11Z</time>
      </trkpt>
      <trkpt lat="49.4356" lon="1.40469">
        <ele>101.705002</ele>
        <time>2017-10-09T12:36:24Z</time>
      </trkpt>
      <trkpt lat="49.43535" lon="1.40449">
        <ele>96.525047</ele>
        <time>2017-10-09T12:36:30Z</time>
      </trkpt>
      <trkpt lat="49.43517" lon="1.40419">
        <ele>94.633965</ele>
        <time>2017-10-09T12:36:35Z</time>
      </trkpt>
      <trkpt lat="49.4351" lon="1.40397">
        <ele>94.252502</ele>
        <time>2017-10-09T12:36:38Z</time>
      </trkpt>
      <trkpt lat="49.43501" lon="1.40374">
        <ele>93.506248</ele>
        <time>2017-10-09T12:36:46Z</time>
      </trkpt>
      <trkpt lat="49.43501" lon="1.40375">
        <ele>93.52375</ele>
        <time>2017-10-09T12:37:15Z</time>
      </trkpt>
      <trkpt lat="49.43501" lon="1.40375">
        <ele>93.52375</ele>
        <time>2017-10-09T12:37:25Z</time>
      </trkpt>
      <trkpt lat="49.43494" lon="1.40419">
        <ele>93.759796</ele>
        <time>2017-10-09T12:37:37Z</time>
      </trkpt>
      <trkpt lat="49.43494" lon="1.40474">
        <ele>94.335701</ele>
        <time>2017-10-09T12:37:49Z</time>
      </trkpt>
      <trkpt lat="49.43498" lon="1.40548">
        <ele>95</ele>
        <time>2017-10-09T12:38:03Z</time>
      </trkpt>
      <trkpt lat="49.435" lon="1.40608">
        <ele>95.00531</ele>
        <time>2017-10-09T12:38:17Z</time>
      </trkpt>
      <trkpt lat="49.43493" lon="1.40662">
        <ele>94.700302</ele>
        <time>2017-10-09T12:38:30Z</time>
      </trkpt>
      <trkpt lat="49.43465" lon="1.40713">
        <ele>95.6325</ele>
        <time>2017-10-09T12:38:44Z</time>
      </trkpt>
      <trkpt lat="49.43444" lon="1.40748">
        <ele>95.276711</ele>
        <time>2017-10-09T12:38:56Z</time>
      </trkpt>
      <trkpt lat="49.43425" lon="1.40782">
        <ele>97.504402</ele>
        <time>2017-10-09T12:39:06Z</time>
      </trkpt>
      <trkpt lat="49.43403" lon="1.4082">
        <ele>97.23571</ele>
        <time>2017-10-09T12:39:18Z</time>
      </trkpt>
      <trkpt lat="49.43384" lon="1.4086">
        <ele>98.55529</ele>
        <time>2017-10-09T12:39:30Z</time>
      </trkpt>
      <trkpt lat="49.43373" lon="1.40903">
        <ele>100.218422</ele>
        <time>2017-10-09T12:39:41Z</time>
      </trkpt>
      <trkpt lat="49.43378" lon="1.40961">
        <ele>100.197777</ele>
        <time>2017-10-09T12:39:53Z</time>
      </trkpt>
      <trkpt lat="49.43414" lon="1.41037">
        <ele>102.0392</ele>
        <time>2017-10-09T12:40:12Z</time>
      </trkpt>
      <trkpt lat="49.43439" lon="1.41106">
        <ele>100.515846</ele>
        <time>2017-10-09T12:40:29Z</time>
      </trkpt>
      <trkpt lat="49.4345" lon="1.41172">
        <ele>103.406754</ele>
        <time>2017-10-09T12:40:44Z</time>
      </trkpt>
      <trkpt lat="49.43456" lon="1.41272">
        <ele>105.905815</ele>
        <time>2017-10-09T12:41:06Z</time>
      </trkpt>
      <trkpt lat="49.4346" lon="1.41324">
        <ele>106.865601</ele>
        <time>2017-10-09T12:41:19Z</time>
      </trkpt>
      <trkpt lat="49.43464" lon="1.41385">
        <ele>108.208656</ele>
        <time>2017-10-09T12:41:35Z</time>
      </trkpt>
      <trkpt lat="49.43467" lon="1.4144">
        <ele>109.058098</ele>
        <time>2017-10-09T12:41:49Z</time>
      </trkpt>
      <trkpt lat="49.43471" lon="1.41505">
        <ele>109.314804</ele>
        <time>2017-10-09T12:42:04Z</time>
      </trkpt>
      <trkpt lat="49.43491" lon="1.41562">
        <ele>107.531822</ele>
        <time>2017-10-09T12:42:18Z</time>
      </trkpt>
      <trkpt lat="49.43517" lon="1.416">
        <ele>111.184471</ele>
        <time>2017-10-09T12:42:31Z</time>
      </trkpt>
      <trkpt lat="49.4355" lon="1.41646">
        <ele>111.614601</ele>
        <time>2017-10-09T12:42:45Z</time>
      </trkpt>
      <trkpt lat="49.43583" lon="1.41706">
        <ele>110.518753</ele>
        <time>2017-10-09T12:43:02Z</time>
      </trkpt>
      <trkpt lat="49.43601" lon="1.41767">
        <ele>113.889603</ele>
        <time>2017-10-09T12:43:16Z</time>
      </trkpt>
      <trkpt lat="49.43618" lon="1.41841">
        <ele>114.42424</ele>
        <time>2017-10-09T12:43:35Z</time>
      </trkpt>
      <trkpt lat="49.43628" lon="1.41894">
        <ele>113.427803</ele>
        <time>2017-10-09T12:43:50Z</time>
      </trkpt>
      <trkpt lat="49.43644" lon="1.41943">
        <ele>115.791748</ele>
        <time>2017-10-09T12:44:04Z</time>
      </trkpt>
      <trkpt lat="49.43667" lon="1.41988">
        <ele>115.442764</ele>
        <time>2017-10-09T12:44:18Z</time>
      </trkpt>
      <trkpt lat="49.43693" lon="1.42026">
        <ele>116.615501</ele>
        <time>2017-10-09T12:44:33Z</time>
      </trkpt>
      <trkpt lat="49.43728" lon="1.4207">
        <ele>117.544159</ele>
        <time>2017-10-09T12:44:48Z</time>
      </trkpt>
      <trkpt lat="49.43764" lon="1.42121">
        <ele>117.208214</ele>
        <time>2017-10-09T12:45:04Z</time>
      </trkpt>
      <trkpt lat="49.43789" lon="1.42168">
        <ele>120.532402</ele>
        <time>2017-10-09T12:45:17Z</time>
      </trkpt>
      <trkpt lat="49.43796" lon="1.4219">
        <ele>120.398598</ele>
        <time>2017-10-09T12:45:23Z</time>
      </trkpt>
      <trkpt lat="49.43806" lon="1.42254">
        <ele>120.191185</ele>
        <time>2017-10-09T12:45:38Z</time>
      </trkpt>
      <trkpt lat="49.43816" lon="1.42329">
        <ele>121.199821</ele>
        <time>2017-10-09T12:45:56Z</time>
      </trkpt>
      <trkpt lat="49.43813" lon="1.42403">
        <ele>121.322937</ele>
        <time>2017-10-09T12:46:14Z</time>
      </trkpt>
      <trkpt lat="49.43806" lon="1.42422">
        <ele>122.3545</ele>
        <time>2017-10-09T12:46:20Z</time>
      </trkpt>
      <trkpt lat="49.43784" lon="1.42462">
        <ele>122.763138</ele>
        <time>2017-10-09T12:46:36Z</time>
      </trkpt>
      <trkpt lat="49.43773" lon="1.42484">
        <ele>123.199272</ele>
        <time>2017-10-09T12:48:13Z</time>
      </trkpt>
      <trkpt lat="49.43751" lon="1.42521">
        <ele>124.851501</ele>
        <time>2017-10-09T12:48:25Z</time>
      </trkpt>
      <trkpt lat="49.43724" lon="1.42566">
        <ele>125.1035</ele>
        <time>2017-10-09T12:48:41Z</time>
      </trkpt>
      <trkpt lat="49.43698" lon="1.42607">
        <ele>126.353996</ele>
        <time>2017-10-09T12:48:55Z</time>
      </trkpt>
      <trkpt lat="49.43669" lon="1.42651">
        <ele>126.772751</ele>
        <time>2017-10-09T12:49:10Z</time>
      </trkpt>
      <trkpt lat="49.43645" lon="1.42687">
        <ele>128.410324</ele>
        <time>2017-10-09T12:49:25Z</time>
      </trkpt>
      <trkpt lat="49.43622" lon="1.42703">
        <ele>130.589218</ele>
        <time>2017-10-09T12:49:41Z</time>
      </trkpt>
      <trkpt lat="49.43593" lon="1.42711">
        <ele>132.556534</ele>
        <time>2017-10-09T12:49:55Z</time>
      </trkpt>
      <trkpt lat="49.43554" lon="1.42718">
        <ele>132.486099</ele>
        <time>2017-10-09T12:50:10Z</time>
      </trkpt>
      <trkpt lat="49.43514" lon="1.42728">
        <ele>131.881592</ele>
        <time>2017-10-09T12:50:27Z</time>
      </trkpt>
      <trkpt lat="49.43465" lon="1.4274">
        <ele>131.83374</ele>
        <time>2017-10-09T12:50:47Z</time>
      </trkpt>
      <trkpt lat="49.43436" lon="1.42764">
        <ele>134.972748</ele>
        <time>2017-10-09T12:51:00Z</time>
      </trkpt>
      <trkpt lat="49.4342" lon="1.4281">
        <ele>135.159622</ele>
        <time>2017-10-09T12:51:15Z</time>
      </trkpt>
      <trkpt lat="49.43409" lon="1.4286">
        <ele>136.313995</ele>
        <time>2017-10-09T12:51:30Z</time>
      </trkpt>
      <trkpt lat="49.43395" lon="1.42913">
        <ele>139.777496</ele>
        <time>2017-10-09T12:51:46Z</time>
      </trkpt>
      <trkpt lat="49.43382" lon="1.42958">
        <ele>141.089813</ele>
        <time>2017-10-09T12:52:01Z</time>
      </trkpt>
      <trkpt lat="49.43364" lon="1.43023">
        <ele>140.528122</ele>
        <time>2017-10-09T12:52:18Z</time>
      </trkpt>
      <trkpt lat="49.43351" lon="1.43073">
        <ele>144.653687</ele>
        <time>2017-10-09T12:52:33Z</time>
      </trkpt>
      <trkpt lat="49.43337" lon="1.43128">
        <ele>145.111481</ele>
        <time>2017-10-09T12:52:49Z</time>
      </trkpt>
      <trkpt lat="49.4332" lon="1.43191">
        <ele>145.003967</ele>
        <time>2017-10-09T12:53:08Z</time>
      </trkpt>
      <trkpt lat="49.43308" lon="1.43247">
        <ele>147.031998</ele>
        <time>2017-10-09T12:53:25Z</time>
      </trkpt>
      <trkpt lat="49.43302" lon="1.43301">
        <ele>147.684174</ele>
        <time>2017-10-09T12:53:41Z</time>
      </trkpt>
      <trkpt lat="49.43298" lon="1.43365">
        <ele>149.002747</ele>
        <time>2017-10-09T12:53:59Z</time>
      </trkpt>
      <trkpt lat="49.43297" lon="1.43416">
        <ele>149.933121</ele>
        <time>2017-10-09T12:54:15Z</time>
      </trkpt>
      <trkpt lat="49.43292" lon="1.43469">
        <ele>150.827927</ele>
        <time>2017-10-09T12:54:30Z</time>
      </trkpt>
      <trkpt lat="49.4327" lon="1.43524">
        <ele>151.194717</ele>
        <time>2017-10-09T12:54:48Z</time>
      </trkpt>
      <trkpt lat="49.43244" lon="1.43586">
        <ele>154.342682</ele>
        <time>2017-10-09T12:55:08Z</time>
      </trkpt>
      <trkpt lat="49.43215" lon="1.43647">
        <ele>156.649994</ele>
        <time>2017-10-09T12:55:30Z</time>
      </trkpt>
      <trkpt lat="49.43195" lon="1.43698">
        <ele>155.465027</ele>
        <time>2017-10-09T12:55:46Z</time>
      </trkpt>
      <trkpt lat="49.43171" lon="1.43752">
        <ele>157.274994</ele>
        <time>2017-10-09T12:56:03Z</time>
      </trkpt>
      <trkpt lat="49.43153" lon="1.43803">
        <ele>157.525513</ele>
        <time>2017-10-09T12:56:19Z</time>
      </trkpt>
      <trkpt lat="49.43129" lon="1.43856">
        <ele>158.253448</ele>
        <time>2017-10-09T12:56:36Z</time>
      </trkpt>
      <trkpt lat="49.43092" lon="1.4393">
        <ele>159.3936</ele>
        <time>2017-10-09T12:57:00Z</time>
      </trkpt>
      <trkpt lat="49.43062" lon="1.43984">
        <ele>160.052795</ele>
        <time>2017-10-09T12:57:16Z</time>
      </trkpt>
      <trkpt lat="49.43027" lon="1.44043">
        <ele>160.212967</ele>
        <time>2017-10-09T12:57:32Z</time>
      </trkpt>
      <trkpt lat="49.43" lon="1.44097">
        <ele>160.554993</ele>
        <time>2017-10-09T12:57:47Z</time>
      </trkpt>
      <trkpt lat="49.42978" lon="1.44136">
        <ele>161.127502</ele>
        <time>2017-10-09T12:58:01Z</time>
      </trkpt>
      <trkpt lat="49.42954" lon="1.44187">
        <ele>162.236252</ele>
        <time>2017-10-09T12:58:21Z</time>
      </trkpt>
      <trkpt lat="49.4293" lon="1.44232">
        <ele>163.433746</ele>
        <time>2017-10-09T12:58:37Z</time>
      </trkpt>
      <trkpt lat="49.42907" lon="1.44272">
        <ele>164.449997</ele>
        <time>2017-10-09T12:58:52Z</time>
      </trkpt>
      <trkpt lat="49.42884" lon="1.4431">
        <ele>164.964996</ele>
        <time>2017-10-09T12:59:04Z</time>
      </trkpt>
      <trkpt lat="49.42869" lon="1.4435">
        <ele>165.750732</ele>
        <time>2017-10-09T12:59:17Z</time>
      </trkpt>
      <trkpt lat="49.42852" lon="1.44416">
        <ele>166.807617</ele>
        <time>2017-10-09T12:59:32Z</time>
      </trkpt>
      <trkpt lat="49.42831" lon="1.44497">
        <ele>168.179993</ele>
        <time>2017-10-09T12:59:50Z</time>
      </trkpt>
      <trkpt lat="49.42814" lon="1.44559">
        <ele>168.565002</ele>
        <time>2017-10-09T13:00:04Z</time>
      </trkpt>
      <trkpt lat="49.42798" lon="1.44625">
        <ele>168.914993</ele>
        <time>2017-10-09T13:00:21Z</time>
      </trkpt>
      <trkpt lat="49.42791" lon="1.44661">
        <ele>169</ele>
        <time>2017-10-09T13:00:30Z</time>
      </trkpt>
      <trkpt lat="49.42765" lon="1.44758">
        <ele>167.839447</ele>
        <time>2017-10-09T13:00:47Z</time>
      </trkpt>
      <trkpt lat="49.42726" lon="1.44896">
        <ele>165.464996</ele>
        <time>2017-10-09T13:01:09Z</time>
      </trkpt>
      <trkpt lat="49.42694" lon="1.45026">
        <ele>164.032501</ele>
        <time>2017-10-09T13:01:28Z</time>
      </trkpt>
      <trkpt lat="49.42677" lon="1.45059">
        <ele>163.547501</ele>
        <time>2017-10-09T13:01:36Z</time>
      </trkpt>
      <trkpt lat="49.42666" lon="1.45042">
        <ele>163.804993</ele>
        <time>2017-10-09T13:01:41Z</time>
      </trkpt>
      <trkpt lat="49.42648" lon="1.44946">
        <ele>165.199997</ele>
        <time>2017-10-09T13:01:58Z</time>
      </trkpt>
      <trkpt lat="49.42596" lon="1.4487">
        <ele>166.3125</ele>
        <time>2017-10-09T13:02:20Z</time>
      </trkpt>
      <trkpt lat="49.42546" lon="1.4485">
        <ele>166.050003</ele>
        <time>2017-10-09T13:02:36Z</time>
      </trkpt>
      <trkpt lat="49.4248" lon="1.44872">
        <ele>163.581512</ele>
        <time>2017-10-09T13:02:50Z</time>
      </trkpt>
      <trkpt lat="49.42399" lon="1.44948">
        <ele>160.172195</ele>
        <time>2017-10-09T13:03:07Z</time>
      </trkpt>
      <trkpt lat="49.4232" lon="1.44995">
        <ele>159.571243</ele>
        <time>2017-10-09T13:03:23Z</time>
      </trkpt>
      <trkpt lat="49.42218" lon="1.45051">
        <ele>159.78125</ele>
        <time>2017-10-09T13:03:50Z</time>
      </trkpt>
      <trkpt lat="49.42114" lon="1.45109">
        <ele>159.253098</ele>
        <time>2017-10-09T13:04:17Z</time>
      </trkpt>
      <trkpt lat="49.42055" lon="1.45126">
        <ele>160.702072</ele>
        <time>2017-10-09T13:04:34Z</time>
      </trkpt>
      <trkpt lat="49.42011" lon="1.45163">
        <ele>162.313751</ele>
        <time>2017-10-09T13:04:49Z</time>
      </trkpt>
      <trkpt lat="49.41991" lon="1.45211">
        <ele>163.475098</ele>
        <time>2017-10-09T13:05:03Z</time>
      </trkpt>
      <trkpt lat="49.41959" lon="1.45276">
        <ele>164.720001</ele>
        <time>2017-10-09T13:05:21Z</time>
      </trkpt>
      <trkpt lat="49.41921" lon="1.45297">
        <ele>165.160324</ele>
        <time>2017-10-09T13:05:34Z</time>
      </trkpt>
      <trkpt lat="49.41866" lon="1.45317">
        <ele>165.003754</ele>
        <time>2017-10-09T13:05:49Z</time>
      </trkpt>
      <trkpt lat="49.41812" lon="1.45345">
        <ele>163.632492</ele>
        <time>2017-10-09T13:06:03Z</time>
      </trkpt>
      <trkpt lat="49.41753" lon="1.45395">
        <ele>161.573746</ele>
        <time>2017-10-09T13:06:20Z</time>
      </trkpt>
      <trkpt lat="49.41681" lon="1.45452">
        <ele>160.005692</ele>
        <time>2017-10-09T13:06:35Z</time>
      </trkpt>
      <trkpt lat="49.41629" lon="1.455">
        <ele>161.095001</ele>
        <time>2017-10-09T13:06:49Z</time>
      </trkpt>
      <trkpt lat="49.41577" lon="1.45524">
        <ele>162.283875</ele>
        <time>2017-10-09T13:07:03Z</time>
      </trkpt>
      <trkpt lat="49.41516" lon="1.45548">
        <ele>164.25</ele>
        <time>2017-10-09T13:07:26Z</time>
      </trkpt>
      <trkpt lat="49.41465" lon="1.45578">
        <ele>165.75</ele>
        <time>2017-10-09T13:07:49Z</time>
      </trkpt>
      <trkpt lat="49.41413" lon="1.45623">
        <ele>167.53949</ele>
        <time>2017-10-09T13:08:07Z</time>
      </trkpt>
      <trkpt lat="49.41367" lon="1.45674">
        <ele>168.919998</ele>
        <time>2017-10-09T13:08:25Z</time>
      </trkpt>
      <trkpt lat="49.41338" lon="1.45704">
        <ele>169.919601</ele>
        <time>2017-10-09T13:08:38Z</time>
      </trkpt>
      <trkpt lat="49.41302" lon="1.45745">
        <ele>170.404999</ele>
        <time>2017-10-09T13:08:54Z</time>
      </trkpt>
      <trkpt lat="49.41259" lon="1.45797">
        <ele>171.069778</ele>
        <time>2017-10-09T13:09:12Z</time>
      </trkpt>
      <trkpt lat="49.41185" lon="1.4586">
        <ele>170.975327</ele>
        <time>2017-10-09T13:09:31Z</time>
      </trkpt>
      <trkpt lat="49.411" lon="1.45929">
        <ele>168.367508</ele>
        <time>2017-10-09T13:09:49Z</time>
      </trkpt>
      <trkpt lat="49.40978" lon="1.46033">
        <ele>162.639999</ele>
        <time>2017-10-09T13:10:13Z</time>
      </trkpt>
      <trkpt lat="49.40877" lon="1.46168">
        <ele>156.070007</ele>
        <time>2017-10-09T13:10:33Z</time>
      </trkpt>
      <trkpt lat="49.40786" lon="1.46293">
        <ele>158.236252</ele>
        <time>2017-10-09T13:10:53Z</time>
      </trkpt>
      <trkpt lat="49.40681" lon="1.46422">
        <ele>154.274994</ele>
        <time>2017-10-09T13:11:15Z</time>
      </trkpt>
      <trkpt lat="49.406" lon="1.46547">
        <ele>155.524994</ele>
        <time>2017-10-09T13:11:29Z</time>
      </trkpt>
      <trkpt lat="49.40566" lon="1.46612">
        <ele>157.774048</ele>
        <time>2017-10-09T13:11:41Z</time>
      </trkpt>
      <trkpt lat="49.40516" lon="1.46689">
        <ele>159.553757</ele>
        <time>2017-10-09T13:12:05Z</time>
      </trkpt>
      <trkpt lat="49.40456" lon="1.46771">
        <ele>159.887497</ele>
        <time>2017-10-09T13:12:26Z</time>
      </trkpt>
      <trkpt lat="49.40398" lon="1.46836">
        <ele>160.03125</ele>
        <time>2017-10-09T13:12:44Z</time>
      </trkpt>
      <trkpt lat="49.40319" lon="1.46919">
        <ele>156.712524</ele>
        <time>2017-10-09T13:13:03Z</time>
      </trkpt>
      <trkpt lat="49.40298" lon="1.46957">
        <ele>153.831467</ele>
        <time>2017-10-09T13:13:12Z</time>
      </trkpt>
      <trkpt lat="49.40304" lon="1.47006">
        <ele>152.350006</ele>
        <time>2017-10-09T13:13:21Z</time>
      </trkpt>
      <trkpt lat="49.40304" lon="1.47009">
        <ele>152.25</ele>
        <time>2017-10-09T13:13:22Z</time>
      </trkpt>
      <trkpt lat="49.40291" lon="1.47009">
        <ele>150.711563</ele>
        <time>2017-10-09T13:13:27Z</time>
      </trkpt>
      <trkpt lat="49.40267" lon="1.46989">
        <ele>147.789383</ele>
        <time>2017-10-09T13:13:36Z</time>
      </trkpt>
      <trkpt lat="49.40258" lon="1.47005">
        <ele>145.528946</ele>
        <time>2017-10-09T13:13:56Z</time>
      </trkpt>
      <trkpt lat="49.40232" lon="1.47065">
        <ele>135.369995</ele>
        <time>2017-10-09T13:14:11Z</time>
      </trkpt>
      <trkpt lat="49.40219" lon="1.47104">
        <ele>128.680008</ele>
        <time>2017-10-09T13:14:21Z</time>
      </trkpt>
      <trkpt lat="49.40207" lon="1.47147">
        <ele>121.624672</ele>
        <time>2017-10-09T13:14:34Z</time>
      </trkpt>
      <trkpt lat="49.40197" lon="1.47204">
        <ele>111.937202</ele>
        <time>2017-10-09T13:14:42Z</time>
      </trkpt>
      <trkpt lat="49.40178" lon="1.47251">
        <ele>102.745377</ele>
        <time>2017-10-09T13:14:52Z</time>
      </trkpt>
      <trkpt lat="49.40179" lon="1.47292">
        <ele>99.295166</ele>
        <time>2017-10-09T13:15:02Z</time>
      </trkpt>
      <trkpt lat="49.40175" lon="1.47291">
        <ele>98.175934</ele>
        <time>2017-10-09T13:15:04Z</time>
      </trkpt>
      <trkpt lat="49.40156" lon="1.47281">
        <ele>94.28994</ele>
        <time>2017-10-09T13:15:10Z</time>
      </trkpt>
      <trkpt lat="49.40137" lon="1.47328">
        <ele>86.235252</ele>
        <time>2017-10-09T13:15:22Z</time>
      </trkpt>
      <trkpt lat="49.40121" lon="1.47335">
        <ele>83.629662</ele>
        <time>2017-10-09T13:15:33Z</time>
      </trkpt>
      <trkpt lat="49.40104" lon="1.47335">
        <ele>83.205002</ele>
        <time>2017-10-09T13:16:19Z</time>
      </trkpt>
      <trkpt lat="49.40056" lon="1.47337">
        <ele>82.883751</ele>
        <time>2017-10-09T13:16:35Z</time>
      </trkpt>
      <trkpt lat="49.40012" lon="1.47337">
        <ele>82.875</ele>
        <time>2017-10-09T13:16:51Z</time>
      </trkpt>
      <trkpt lat="49.39965" lon="1.47339">
        <ele>84.235001</ele>
        <time>2017-10-09T13:17:11Z</time>
      </trkpt>
      <trkpt lat="49.39918" lon="1.47333">
        <ele>87.055351</ele>
        <time>2017-10-09T13:17:31Z</time>
      </trkpt>
      <trkpt lat="49.39894" lon="1.47293">
        <ele>86.631157</ele>
        <time>2017-10-09T13:17:59Z</time>
      </trkpt>
      <trkpt lat="49.39893" lon="1.47292">
        <ele>86.732941</ele>
        <time>2017-10-09T13:18:00Z</time>
      </trkpt>
      <trkpt lat="49.3989" lon="1.47327">
        <ele>88.251312</ele>
        <time>2017-10-09T13:18:13Z</time>
      </trkpt>
      <trkpt lat="49.39902" lon="1.47396">
        <ele>92.179359</ele>
        <time>2017-10-09T13:18:38Z</time>
      </trkpt>
      <trkpt lat="49.39929" lon="1.47434">
        <ele>94.32</ele>
        <time>2017-10-09T13:18:57Z</time>
      </trkpt>
      <trkpt lat="49.39961" lon="1.47497">
        <ele>96.433319</ele>
        <time>2017-10-09T13:19:14Z</time>
      </trkpt>
      <trkpt lat="49.3997" lon="1.47551">
        <ele>98.331459</ele>
        <time>2017-10-09T13:19:29Z</time>
      </trkpt>
      <trkpt lat="49.39973" lon="1.47612">
        <ele>98.18</ele>
        <time>2017-10-09T13:19:50Z</time>
      </trkpt>
      <trkpt lat="49.39949" lon="1.47648">
        <ele>100.025833</ele>
        <time>2017-10-09T13:20:09Z</time>
      </trkpt>
      <trkpt lat="49.39921" lon="1.47668">
        <ele>101.429726</ele>
        <time>2017-10-09T13:20:22Z</time>
      </trkpt>
      <trkpt lat="49.39891" lon="1.47676">
        <ele>102.89875</ele>
        <time>2017-10-09T13:20:41Z</time>
      </trkpt>
      <trkpt lat="49.39906" lon="1.47687">
        <ele>102.380684</ele>
        <time>2017-10-09T13:20:55Z</time>
      </trkpt>
      <trkpt lat="49.39906" lon="1.47688">
        <ele>102.386024</ele>
        <time>2017-10-09T13:21:30Z</time>
      </trkpt>
      <trkpt lat="49.39906" lon="1.47688">
        <ele>102.386787</ele>
        <time>2017-10-09T13:21:41Z</time>
      </trkpt>
    </trkseg>
  </trk>
</gpx>